<?xml version="1.0" encoding="UTF-8" standalone="no" ?>
<gpx xmlns="http://www.topografix.com/GPX/1/1" xmlns:xsi="http://www.w3.org/2001/XMLSchema-instance" xsi:schemaLocation="http://www.topografix.com/GPX/1/1 http://www.topografix.com/GPX/1/1/gpx.xsd" version="1.1" creator="VisuGPX - https://www.visugpx.com">
  <metadata>
    <name>Rocher de Roquebrune par les crêtes, accès chapelle Notre-Dame de la Roquette</name>
    <desc><![CDATA[Quelques passages exposés, pas de difficulté particulière en suivant le balisage bleu qui contourne (chaînes ou câbles) certaines crêtes. Les variantes (étoiles blanches ou points blancs) comportent des passages d\'escalade.
]]></desc>
  </metadata>
  <trk>
    <name><![CDATA[07-OCT-13 15:27:09]]></name>
    <trkseg>
      <trkpt lat="43.45051" lon="6.61627">
        <ele>-26.78</ele>
        <time>2013-10-07T07:20:29Z</time>
      </trkpt>
      <trkpt lat="43.4506" lon="6.6163">
        <ele>-23.41</ele>
        <time>2013-10-07T07:20:30Z</time>
      </trkpt>
      <trkpt lat="43.45067" lon="6.61632">
        <ele>-20.05</ele>
        <time>2013-10-07T07:20:33Z</time>
      </trkpt>
      <trkpt lat="43.45067" lon="6.61632">
        <ele>-16.21</ele>
        <time>2013-10-07T07:20:35Z</time>
      </trkpt>
      <trkpt lat="43.45067" lon="6.61633">
        <ele>-12.84</ele>
        <time>2013-10-07T07:20:39Z</time>
      </trkpt>
      <trkpt lat="43.45068" lon="6.61634">
        <ele>-9</ele>
        <time>2013-10-07T07:20:42Z</time>
      </trkpt>
      <trkpt lat="43.45068" lon="6.61635">
        <ele>-8.03</ele>
        <time>2013-10-07T07:20:44Z</time>
      </trkpt>
      <trkpt lat="43.45068" lon="6.61635">
        <ele>-5.15</ele>
        <time>2013-10-07T07:20:46Z</time>
      </trkpt>
      <trkpt lat="43.45069" lon="6.61636">
        <ele>-3.71</ele>
        <time>2013-10-07T07:20:49Z</time>
      </trkpt>
      <trkpt lat="43.45069" lon="6.61636">
        <ele>-0.34</ele>
        <time>2013-10-07T07:20:52Z</time>
      </trkpt>
      <trkpt lat="43.45069" lon="6.61636">
        <ele>2.06</ele>
        <time>2013-10-07T07:20:55Z</time>
      </trkpt>
      <trkpt lat="43.45069" lon="6.61636">
        <ele>5.42</ele>
        <time>2013-10-07T07:21:00Z</time>
      </trkpt>
      <trkpt lat="43.4507" lon="6.61635">
        <ele>7.35</ele>
        <time>2013-10-07T07:21:03Z</time>
      </trkpt>
      <trkpt lat="43.45072" lon="6.61635">
        <ele>9.75</ele>
        <time>2013-10-07T07:21:06Z</time>
      </trkpt>
      <trkpt lat="43.45073" lon="6.61634">
        <ele>13.6</ele>
        <time>2013-10-07T07:21:13Z</time>
      </trkpt>
      <trkpt lat="43.45073" lon="6.61634">
        <ele>13.12</ele>
        <time>2013-10-07T07:21:14Z</time>
      </trkpt>
      <trkpt lat="43.45074" lon="6.61632">
        <ele>17.44</ele>
        <time>2013-10-07T07:21:23Z</time>
      </trkpt>
      <trkpt lat="43.45077" lon="6.61633">
        <ele>18.4</ele>
        <time>2013-10-07T07:21:44Z</time>
      </trkpt>
      <trkpt lat="43.45075" lon="6.61637">
        <ele>18.88</ele>
        <time>2013-10-07T07:22:05Z</time>
      </trkpt>
      <trkpt lat="43.45071" lon="6.61639">
        <ele>18.88</ele>
        <time>2013-10-07T07:22:30Z</time>
      </trkpt>
      <trkpt lat="43.45077" lon="6.61635">
        <ele>19.84</ele>
        <time>2013-10-07T07:23:04Z</time>
      </trkpt>
      <trkpt lat="43.45077" lon="6.61636">
        <ele>19.36</ele>
        <time>2013-10-07T07:23:17Z</time>
      </trkpt>
      <trkpt lat="43.45074" lon="6.61637">
        <ele>19.36</ele>
        <time>2013-10-07T07:23:40Z</time>
      </trkpt>
      <trkpt lat="43.45073" lon="6.61639">
        <ele>19.36</ele>
        <time>2013-10-07T07:23:44Z</time>
      </trkpt>
      <trkpt lat="43.45072" lon="6.61645">
        <ele>19.84</ele>
        <time>2013-10-07T07:23:49Z</time>
      </trkpt>
      <trkpt lat="43.45072" lon="6.6167">
        <ele>20.81</ele>
        <time>2013-10-07T07:24:05Z</time>
      </trkpt>
      <trkpt lat="43.45054" lon="6.61699">
        <ele>20.32</ele>
        <time>2013-10-07T07:24:23Z</time>
      </trkpt>
      <trkpt lat="43.45042" lon="6.61725">
        <ele>19.84</ele>
        <time>2013-10-07T07:24:39Z</time>
      </trkpt>
      <trkpt lat="43.45032" lon="6.61757">
        <ele>19.36</ele>
        <time>2013-10-07T07:24:56Z</time>
      </trkpt>
      <trkpt lat="43.45022" lon="6.61781">
        <ele>18.88</ele>
        <time>2013-10-07T07:25:11Z</time>
      </trkpt>
      <trkpt lat="43.45005" lon="6.61801">
        <ele>19.36</ele>
        <time>2013-10-07T07:25:27Z</time>
      </trkpt>
      <trkpt lat="43.4499" lon="6.61818">
        <ele>18.88</ele>
        <time>2013-10-07T07:25:40Z</time>
      </trkpt>
      <trkpt lat="43.44973" lon="6.61835">
        <ele>18.4</ele>
        <time>2013-10-07T07:25:56Z</time>
      </trkpt>
      <trkpt lat="43.44953" lon="6.61845">
        <ele>18.4</ele>
        <time>2013-10-07T07:26:13Z</time>
      </trkpt>
      <trkpt lat="43.44945" lon="6.61847">
        <ele>18.88</ele>
        <time>2013-10-07T07:26:28Z</time>
      </trkpt>
      <trkpt lat="43.44943" lon="6.61847">
        <ele>17.92</ele>
        <time>2013-10-07T07:26:43Z</time>
      </trkpt>
      <trkpt lat="43.44939" lon="6.61833">
        <ele>20.81</ele>
        <time>2013-10-07T07:26:55Z</time>
      </trkpt>
      <trkpt lat="43.44929" lon="6.61824">
        <ele>22.25</ele>
        <time>2013-10-07T07:27:07Z</time>
      </trkpt>
      <trkpt lat="43.44926" lon="6.61821">
        <ele>22.73</ele>
        <time>2013-10-07T07:27:10Z</time>
      </trkpt>
      <trkpt lat="43.44923" lon="6.61817">
        <ele>24.65</ele>
        <time>2013-10-07T07:27:27Z</time>
      </trkpt>
      <trkpt lat="43.44921" lon="6.61813">
        <ele>25.13</ele>
        <time>2013-10-07T07:27:39Z</time>
      </trkpt>
      <trkpt lat="43.44917" lon="6.61794">
        <ele>27.05</ele>
        <time>2013-10-07T07:27:55Z</time>
      </trkpt>
      <trkpt lat="43.44917" lon="6.61793">
        <ele>27.53</ele>
        <time>2013-10-07T07:28:01Z</time>
      </trkpt>
      <trkpt lat="43.44906" lon="6.6178">
        <ele>30.42</ele>
        <time>2013-10-07T07:28:17Z</time>
      </trkpt>
      <trkpt lat="43.44905" lon="6.61778">
        <ele>31.38</ele>
        <time>2013-10-07T07:28:19Z</time>
      </trkpt>
      <trkpt lat="43.449" lon="6.61772">
        <ele>32.82</ele>
        <time>2013-10-07T07:28:26Z</time>
      </trkpt>
      <trkpt lat="43.44888" lon="6.61759">
        <ele>34.74</ele>
        <time>2013-10-07T07:28:43Z</time>
      </trkpt>
      <trkpt lat="43.44887" lon="6.61759">
        <ele>34.74</ele>
        <time>2013-10-07T07:28:54Z</time>
      </trkpt>
      <trkpt lat="43.44874" lon="6.61759">
        <ele>37.15</ele>
        <time>2013-10-07T07:29:07Z</time>
      </trkpt>
      <trkpt lat="43.44877" lon="6.61756">
        <ele>36.19</ele>
        <time>2013-10-07T07:29:28Z</time>
      </trkpt>
      <trkpt lat="43.44866" lon="6.61761">
        <ele>35.71</ele>
        <time>2013-10-07T07:29:46Z</time>
      </trkpt>
      <trkpt lat="43.44858" lon="6.61767">
        <ele>35.71</ele>
        <time>2013-10-07T07:29:55Z</time>
      </trkpt>
      <trkpt lat="43.44854" lon="6.61764">
        <ele>34.74</ele>
        <time>2013-10-07T07:29:59Z</time>
      </trkpt>
      <trkpt lat="43.44851" lon="6.61745">
        <ele>34.26</ele>
        <time>2013-10-07T07:30:11Z</time>
      </trkpt>
      <trkpt lat="43.44852" lon="6.61741">
        <ele>34.26</ele>
        <time>2013-10-07T07:30:14Z</time>
      </trkpt>
      <trkpt lat="43.44857" lon="6.61733">
        <ele>33.3</ele>
        <time>2013-10-07T07:30:21Z</time>
      </trkpt>
      <trkpt lat="43.44857" lon="6.6173">
        <ele>32.82</ele>
        <time>2013-10-07T07:30:23Z</time>
      </trkpt>
      <trkpt lat="43.4486" lon="6.61724">
        <ele>32.82</ele>
        <time>2013-10-07T07:30:36Z</time>
      </trkpt>
      <trkpt lat="43.44867" lon="6.6172">
        <ele>30.42</ele>
        <time>2013-10-07T07:30:48Z</time>
      </trkpt>
      <trkpt lat="43.44867" lon="6.61716">
        <ele>30.42</ele>
        <time>2013-10-07T07:30:52Z</time>
      </trkpt>
      <trkpt lat="43.44874" lon="6.61711">
        <ele>29.46</ele>
        <time>2013-10-07T07:31:07Z</time>
      </trkpt>
      <trkpt lat="43.44881" lon="6.61703">
        <ele>27.53</ele>
        <time>2013-10-07T07:31:17Z</time>
      </trkpt>
      <trkpt lat="43.4489" lon="6.61693">
        <ele>28.98</ele>
        <time>2013-10-07T07:31:31Z</time>
      </trkpt>
      <trkpt lat="43.44898" lon="6.61684">
        <ele>30.9</ele>
        <time>2013-10-07T07:31:45Z</time>
      </trkpt>
      <trkpt lat="43.44897" lon="6.61676">
        <ele>33.3</ele>
        <time>2013-10-07T07:31:55Z</time>
      </trkpt>
      <trkpt lat="43.44892" lon="6.61672">
        <ele>34.74</ele>
        <time>2013-10-07T07:32:00Z</time>
      </trkpt>
      <trkpt lat="43.44884" lon="6.61659">
        <ele>38.11</ele>
        <time>2013-10-07T07:32:14Z</time>
      </trkpt>
      <trkpt lat="43.44879" lon="6.6165">
        <ele>40.51</ele>
        <time>2013-10-07T07:32:23Z</time>
      </trkpt>
      <trkpt lat="43.44878" lon="6.61644">
        <ele>40.51</ele>
        <time>2013-10-07T07:32:28Z</time>
      </trkpt>
      <trkpt lat="43.44879" lon="6.6164">
        <ele>41.47</ele>
        <time>2013-10-07T07:32:31Z</time>
      </trkpt>
      <trkpt lat="43.44882" lon="6.61629">
        <ele>44.36</ele>
        <time>2013-10-07T07:32:43Z</time>
      </trkpt>
      <trkpt lat="43.44881" lon="6.61612">
        <ele>47.24</ele>
        <time>2013-10-07T07:32:59Z</time>
      </trkpt>
      <trkpt lat="43.44884" lon="6.61601">
        <ele>50.13</ele>
        <time>2013-10-07T07:33:10Z</time>
      </trkpt>
      <trkpt lat="43.44885" lon="6.61589">
        <ele>52.53</ele>
        <time>2013-10-07T07:33:24Z</time>
      </trkpt>
      <trkpt lat="43.44882" lon="6.61574">
        <ele>55.41</ele>
        <time>2013-10-07T07:33:38Z</time>
      </trkpt>
      <trkpt lat="43.44883" lon="6.61559">
        <ele>57.82</ele>
        <time>2013-10-07T07:33:54Z</time>
      </trkpt>
      <trkpt lat="43.44883" lon="6.6155">
        <ele>59.74</ele>
        <time>2013-10-07T07:34:05Z</time>
      </trkpt>
      <trkpt lat="43.44883" lon="6.61547">
        <ele>59.74</ele>
        <time>2013-10-07T07:34:13Z</time>
      </trkpt>
      <trkpt lat="43.44883" lon="6.61545">
        <ele>60.7</ele>
        <time>2013-10-07T07:34:15Z</time>
      </trkpt>
      <trkpt lat="43.44878" lon="6.61529">
        <ele>63.58</ele>
        <time>2013-10-07T07:34:30Z</time>
      </trkpt>
      <trkpt lat="43.44879" lon="6.61531">
        <ele>63.58</ele>
        <time>2013-10-07T07:34:34Z</time>
      </trkpt>
      <trkpt lat="43.44879" lon="6.61529">
        <ele>63.1</ele>
        <time>2013-10-07T07:34:51Z</time>
      </trkpt>
      <trkpt lat="43.44879" lon="6.61529">
        <ele>63.1</ele>
        <time>2013-10-07T07:35:22Z</time>
      </trkpt>
      <trkpt lat="43.44878" lon="6.61534">
        <ele>63.58</ele>
        <time>2013-10-07T07:35:33Z</time>
      </trkpt>
      <trkpt lat="43.44879" lon="6.61532">
        <ele>63.58</ele>
        <time>2013-10-07T07:35:45Z</time>
      </trkpt>
      <trkpt lat="43.4488" lon="6.61528">
        <ele>63.58</ele>
        <time>2013-10-07T07:35:57Z</time>
      </trkpt>
      <trkpt lat="43.4488" lon="6.6153">
        <ele>63.58</ele>
        <time>2013-10-07T07:36:01Z</time>
      </trkpt>
      <trkpt lat="43.4488" lon="6.61535">
        <ele>63.58</ele>
        <time>2013-10-07T07:36:15Z</time>
      </trkpt>
      <trkpt lat="43.44879" lon="6.61533">
        <ele>63.58</ele>
        <time>2013-10-07T07:36:38Z</time>
      </trkpt>
      <trkpt lat="43.44877" lon="6.6153">
        <ele>64.07</ele>
        <time>2013-10-07T07:36:51Z</time>
      </trkpt>
      <trkpt lat="43.44875" lon="6.61529">
        <ele>64.07</ele>
        <time>2013-10-07T07:37:08Z</time>
      </trkpt>
      <trkpt lat="43.44873" lon="6.61528">
        <ele>65.03</ele>
        <time>2013-10-07T07:37:10Z</time>
      </trkpt>
      <trkpt lat="43.44869" lon="6.61523">
        <ele>65.51</ele>
        <time>2013-10-07T07:37:16Z</time>
      </trkpt>
      <trkpt lat="43.44866" lon="6.61515">
        <ele>67.43</ele>
        <time>2013-10-07T07:37:29Z</time>
      </trkpt>
      <trkpt lat="43.44865" lon="6.61506">
        <ele>68.39</ele>
        <time>2013-10-07T07:37:44Z</time>
      </trkpt>
      <trkpt lat="43.44866" lon="6.61502">
        <ele>68.87</ele>
        <time>2013-10-07T07:37:48Z</time>
      </trkpt>
      <trkpt lat="43.44867" lon="6.61498">
        <ele>67.43</ele>
        <time>2013-10-07T07:37:51Z</time>
      </trkpt>
      <trkpt lat="43.44868" lon="6.61496">
        <ele>69.35</ele>
        <time>2013-10-07T07:37:53Z</time>
      </trkpt>
      <trkpt lat="43.44863" lon="6.61487">
        <ele>71.76</ele>
        <time>2013-10-07T07:38:05Z</time>
      </trkpt>
      <trkpt lat="43.44858" lon="6.6148">
        <ele>74.16</ele>
        <time>2013-10-07T07:38:15Z</time>
      </trkpt>
      <trkpt lat="43.44854" lon="6.61474">
        <ele>75.12</ele>
        <time>2013-10-07T07:38:30Z</time>
      </trkpt>
      <trkpt lat="43.44847" lon="6.61464">
        <ele>78.48</ele>
        <time>2013-10-07T07:38:44Z</time>
      </trkpt>
      <trkpt lat="43.44842" lon="6.61456">
        <ele>81.37</ele>
        <time>2013-10-07T07:38:58Z</time>
      </trkpt>
      <trkpt lat="43.44835" lon="6.61452">
        <ele>84.73</ele>
        <time>2013-10-07T07:39:10Z</time>
      </trkpt>
      <trkpt lat="43.44831" lon="6.61443">
        <ele>86.66</ele>
        <time>2013-10-07T07:39:22Z</time>
      </trkpt>
      <trkpt lat="43.44823" lon="6.61433">
        <ele>88.58</ele>
        <time>2013-10-07T07:39:38Z</time>
      </trkpt>
      <trkpt lat="43.44815" lon="6.61425">
        <ele>91.46</ele>
        <time>2013-10-07T07:39:53Z</time>
      </trkpt>
      <trkpt lat="43.44814" lon="6.6142">
        <ele>91.94</ele>
        <time>2013-10-07T07:40:05Z</time>
      </trkpt>
      <trkpt lat="43.4481" lon="6.61419">
        <ele>92.9</ele>
        <time>2013-10-07T07:40:35Z</time>
      </trkpt>
      <trkpt lat="43.44803" lon="6.6141">
        <ele>95.79</ele>
        <time>2013-10-07T07:40:50Z</time>
      </trkpt>
      <trkpt lat="43.44798" lon="6.61398">
        <ele>98.67</ele>
        <time>2013-10-07T07:41:05Z</time>
      </trkpt>
      <trkpt lat="43.44796" lon="6.61395">
        <ele>99.15</ele>
        <time>2013-10-07T07:41:09Z</time>
      </trkpt>
      <trkpt lat="43.44785" lon="6.6139">
        <ele>102.04</ele>
        <time>2013-10-07T07:41:25Z</time>
      </trkpt>
      <trkpt lat="43.44779" lon="6.61385">
        <ele>104.44</ele>
        <time>2013-10-07T07:41:40Z</time>
      </trkpt>
      <trkpt lat="43.4477" lon="6.6138">
        <ele>107.32</ele>
        <time>2013-10-07T07:41:53Z</time>
      </trkpt>
      <trkpt lat="43.44768" lon="6.6138">
        <ele>107.81</ele>
        <time>2013-10-07T07:42:06Z</time>
      </trkpt>
      <trkpt lat="43.44769" lon="6.61375">
        <ele>107.32</ele>
        <time>2013-10-07T07:42:26Z</time>
      </trkpt>
      <trkpt lat="43.44762" lon="6.6138">
        <ele>108.29</ele>
        <time>2013-10-07T07:42:38Z</time>
      </trkpt>
      <trkpt lat="43.44766" lon="6.6138">
        <ele>108.77</ele>
        <time>2013-10-07T07:43:30Z</time>
      </trkpt>
      <trkpt lat="43.44759" lon="6.61372">
        <ele>108.77</ele>
        <time>2013-10-07T07:43:48Z</time>
      </trkpt>
      <trkpt lat="43.4476" lon="6.61371">
        <ele>109.73</ele>
        <time>2013-10-07T07:43:51Z</time>
      </trkpt>
      <trkpt lat="43.44768" lon="6.61364">
        <ele>110.69</ele>
        <time>2013-10-07T07:44:00Z</time>
      </trkpt>
      <trkpt lat="43.44771" lon="6.61348">
        <ele>111.17</ele>
        <time>2013-10-07T07:44:13Z</time>
      </trkpt>
      <trkpt lat="43.44769" lon="6.61342">
        <ele>111.17</ele>
        <time>2013-10-07T07:44:32Z</time>
      </trkpt>
      <trkpt lat="43.44768" lon="6.61336">
        <ele>110.21</ele>
        <time>2013-10-07T07:44:49Z</time>
      </trkpt>
      <trkpt lat="43.44765" lon="6.61331">
        <ele>110.21</ele>
        <time>2013-10-07T07:44:57Z</time>
      </trkpt>
      <trkpt lat="43.44763" lon="6.61316">
        <ele>111.65</ele>
        <time>2013-10-07T07:45:11Z</time>
      </trkpt>
      <trkpt lat="43.44759" lon="6.61308">
        <ele>114.05</ele>
        <time>2013-10-07T07:45:22Z</time>
      </trkpt>
      <trkpt lat="43.44757" lon="6.61304">
        <ele>115.01</ele>
        <time>2013-10-07T07:45:33Z</time>
      </trkpt>
      <trkpt lat="43.44758" lon="6.613">
        <ele>115.5</ele>
        <time>2013-10-07T07:45:48Z</time>
      </trkpt>
      <trkpt lat="43.44759" lon="6.61298">
        <ele>114.53</ele>
        <time>2013-10-07T07:46:01Z</time>
      </trkpt>
      <trkpt lat="43.4476" lon="6.61296">
        <ele>114.53</ele>
        <time>2013-10-07T07:46:11Z</time>
      </trkpt>
      <trkpt lat="43.44761" lon="6.61292">
        <ele>116.46</ele>
        <time>2013-10-07T07:46:27Z</time>
      </trkpt>
      <trkpt lat="43.44754" lon="6.61288">
        <ele>118.38</ele>
        <time>2013-10-07T07:46:40Z</time>
      </trkpt>
      <trkpt lat="43.44752" lon="6.61288">
        <ele>118.38</ele>
        <time>2013-10-07T07:46:47Z</time>
      </trkpt>
      <trkpt lat="43.44748" lon="6.61288">
        <ele>119.34</ele>
        <time>2013-10-07T07:47:00Z</time>
      </trkpt>
      <trkpt lat="43.44743" lon="6.61291">
        <ele>120.3</ele>
        <time>2013-10-07T07:47:11Z</time>
      </trkpt>
      <trkpt lat="43.44745" lon="6.61292">
        <ele>120.78</ele>
        <time>2013-10-07T07:47:28Z</time>
      </trkpt>
      <trkpt lat="43.44744" lon="6.61296">
        <ele>121.74</ele>
        <time>2013-10-07T07:47:37Z</time>
      </trkpt>
      <trkpt lat="43.44744" lon="6.61294">
        <ele>122.22</ele>
        <time>2013-10-07T07:47:48Z</time>
      </trkpt>
      <trkpt lat="43.44745" lon="6.61301">
        <ele>125.11</ele>
        <time>2013-10-07T07:47:58Z</time>
      </trkpt>
      <trkpt lat="43.44745" lon="6.61301">
        <ele>126.55</ele>
        <time>2013-10-07T07:48:06Z</time>
      </trkpt>
      <trkpt lat="43.44744" lon="6.61306">
        <ele>127.99</ele>
        <time>2013-10-07T07:48:10Z</time>
      </trkpt>
      <trkpt lat="43.44738" lon="6.61314">
        <ele>129.43</ele>
        <time>2013-10-07T07:48:20Z</time>
      </trkpt>
      <trkpt lat="43.44728" lon="6.61309">
        <ele>130.4</ele>
        <time>2013-10-07T07:48:33Z</time>
      </trkpt>
      <trkpt lat="43.44727" lon="6.61308">
        <ele>130.4</ele>
        <time>2013-10-07T07:48:47Z</time>
      </trkpt>
      <trkpt lat="43.4473" lon="6.61309">
        <ele>129.92</ele>
        <time>2013-10-07T07:49:04Z</time>
      </trkpt>
      <trkpt lat="43.44729" lon="6.61307">
        <ele>130.4</ele>
        <time>2013-10-07T07:49:22Z</time>
      </trkpt>
      <trkpt lat="43.44725" lon="6.61302">
        <ele>133.28</ele>
        <time>2013-10-07T07:49:36Z</time>
      </trkpt>
      <trkpt lat="43.44725" lon="6.61301">
        <ele>134.24</ele>
        <time>2013-10-07T07:49:46Z</time>
      </trkpt>
      <trkpt lat="43.44725" lon="6.61299">
        <ele>135.68</ele>
        <time>2013-10-07T07:49:49Z</time>
      </trkpt>
      <trkpt lat="43.44722" lon="6.61294">
        <ele>138.09</ele>
        <time>2013-10-07T07:50:02Z</time>
      </trkpt>
      <trkpt lat="43.44718" lon="6.61295">
        <ele>140.01</ele>
        <time>2013-10-07T07:50:12Z</time>
      </trkpt>
      <trkpt lat="43.44715" lon="6.6129">
        <ele>140.97</ele>
        <time>2013-10-07T07:50:23Z</time>
      </trkpt>
      <trkpt lat="43.44715" lon="6.61293">
        <ele>141.93</ele>
        <time>2013-10-07T07:50:44Z</time>
      </trkpt>
      <trkpt lat="43.44715" lon="6.61293">
        <ele>141.93</ele>
        <time>2013-10-07T07:51:05Z</time>
      </trkpt>
      <trkpt lat="43.44711" lon="6.61293">
        <ele>141.93</ele>
        <time>2013-10-07T07:51:26Z</time>
      </trkpt>
      <trkpt lat="43.4471" lon="6.61288">
        <ele>143.37</ele>
        <time>2013-10-07T07:51:41Z</time>
      </trkpt>
      <trkpt lat="43.44709" lon="6.61285">
        <ele>145.78</ele>
        <time>2013-10-07T07:51:55Z</time>
      </trkpt>
      <trkpt lat="43.44701" lon="6.61291">
        <ele>147.22</ele>
        <time>2013-10-07T07:52:07Z</time>
      </trkpt>
      <trkpt lat="43.44696" lon="6.6129">
        <ele>150.58</ele>
        <time>2013-10-07T07:52:20Z</time>
      </trkpt>
      <trkpt lat="43.44688" lon="6.61296">
        <ele>152.99</ele>
        <time>2013-10-07T07:52:36Z</time>
      </trkpt>
      <trkpt lat="43.44677" lon="6.61294">
        <ele>155.87</ele>
        <time>2013-10-07T07:52:51Z</time>
      </trkpt>
      <trkpt lat="43.44676" lon="6.61289">
        <ele>157.31</ele>
        <time>2013-10-07T07:53:07Z</time>
      </trkpt>
      <trkpt lat="43.44677" lon="6.61287">
        <ele>157.31</ele>
        <time>2013-10-07T07:53:09Z</time>
      </trkpt>
      <trkpt lat="43.44678" lon="6.61278">
        <ele>157.79</ele>
        <time>2013-10-07T07:53:21Z</time>
      </trkpt>
      <trkpt lat="43.4468" lon="6.61278">
        <ele>157.79</ele>
        <time>2013-10-07T07:53:35Z</time>
      </trkpt>
      <trkpt lat="43.44684" lon="6.61276">
        <ele>157.79</ele>
        <time>2013-10-07T07:53:58Z</time>
      </trkpt>
      <trkpt lat="43.4468" lon="6.61274">
        <ele>156.83</ele>
        <time>2013-10-07T07:54:09Z</time>
      </trkpt>
      <trkpt lat="43.44677" lon="6.6127">
        <ele>154.91</ele>
        <time>2013-10-07T07:54:21Z</time>
      </trkpt>
      <trkpt lat="43.44674" lon="6.61271">
        <ele>154.43</ele>
        <time>2013-10-07T07:54:34Z</time>
      </trkpt>
      <trkpt lat="43.44673" lon="6.61266">
        <ele>152.03</ele>
        <time>2013-10-07T07:54:48Z</time>
      </trkpt>
      <trkpt lat="43.44674" lon="6.61258">
        <ele>150.1</ele>
        <time>2013-10-07T07:55:02Z</time>
      </trkpt>
      <trkpt lat="43.44671" lon="6.6125">
        <ele>151.06</ele>
        <time>2013-10-07T07:55:16Z</time>
      </trkpt>
      <trkpt lat="43.44675" lon="6.61247">
        <ele>153.95</ele>
        <time>2013-10-07T07:55:28Z</time>
      </trkpt>
      <trkpt lat="43.44676" lon="6.6124">
        <ele>156.35</ele>
        <time>2013-10-07T07:55:41Z</time>
      </trkpt>
      <trkpt lat="43.44681" lon="6.61239">
        <ele>157.31</ele>
        <time>2013-10-07T07:55:54Z</time>
      </trkpt>
      <trkpt lat="43.44685" lon="6.61235">
        <ele>158.27</ele>
        <time>2013-10-07T07:56:06Z</time>
      </trkpt>
      <trkpt lat="43.44685" lon="6.61234">
        <ele>158.75</ele>
        <time>2013-10-07T07:56:11Z</time>
      </trkpt>
      <trkpt lat="43.44687" lon="6.61226">
        <ele>161.64</ele>
        <time>2013-10-07T07:56:23Z</time>
      </trkpt>
      <trkpt lat="43.44686" lon="6.61223">
        <ele>163.56</ele>
        <time>2013-10-07T07:56:40Z</time>
      </trkpt>
      <trkpt lat="43.44684" lon="6.61213">
        <ele>166.93</ele>
        <time>2013-10-07T07:56:55Z</time>
      </trkpt>
      <trkpt lat="43.4468" lon="6.61211">
        <ele>168.37</ele>
        <time>2013-10-07T07:57:09Z</time>
      </trkpt>
      <trkpt lat="43.44683" lon="6.61212">
        <ele>168.37</ele>
        <time>2013-10-07T07:57:21Z</time>
      </trkpt>
      <trkpt lat="43.44677" lon="6.61202">
        <ele>169.33</ele>
        <time>2013-10-07T07:57:33Z</time>
      </trkpt>
      <trkpt lat="43.44677" lon="6.61191">
        <ele>172.21</ele>
        <time>2013-10-07T07:57:49Z</time>
      </trkpt>
      <trkpt lat="43.44677" lon="6.61182">
        <ele>175.1</ele>
        <time>2013-10-07T07:58:04Z</time>
      </trkpt>
      <trkpt lat="43.44673" lon="6.61173">
        <ele>177.5</ele>
        <time>2013-10-07T07:58:18Z</time>
      </trkpt>
      <trkpt lat="43.4467" lon="6.61163">
        <ele>179.42</ele>
        <time>2013-10-07T07:58:32Z</time>
      </trkpt>
      <trkpt lat="43.44667" lon="6.61161">
        <ele>178.94</ele>
        <time>2013-10-07T07:58:48Z</time>
      </trkpt>
      <trkpt lat="43.44669" lon="6.61156">
        <ele>179.42</ele>
        <time>2013-10-07T07:59:05Z</time>
      </trkpt>
      <trkpt lat="43.44668" lon="6.61154">
        <ele>179.42</ele>
        <time>2013-10-07T07:59:28Z</time>
      </trkpt>
      <trkpt lat="43.44667" lon="6.61155">
        <ele>179.42</ele>
        <time>2013-10-07T07:59:47Z</time>
      </trkpt>
      <trkpt lat="43.44666" lon="6.61155">
        <ele>179.42</ele>
        <time>2013-10-07T08:00:05Z</time>
      </trkpt>
      <trkpt lat="43.44665" lon="6.61151">
        <ele>179.42</ele>
        <time>2013-10-07T08:00:10Z</time>
      </trkpt>
      <trkpt lat="43.44664" lon="6.61144">
        <ele>178.94</ele>
        <time>2013-10-07T08:00:17Z</time>
      </trkpt>
      <trkpt lat="43.4466" lon="6.61125">
        <ele>179.9</ele>
        <time>2013-10-07T08:00:34Z</time>
      </trkpt>
      <trkpt lat="43.44661" lon="6.61118">
        <ele>180.87</ele>
        <time>2013-10-07T08:00:46Z</time>
      </trkpt>
      <trkpt lat="43.44664" lon="6.61118">
        <ele>183.75</ele>
        <time>2013-10-07T08:00:57Z</time>
      </trkpt>
      <trkpt lat="43.44667" lon="6.61114">
        <ele>185.67</ele>
        <time>2013-10-07T08:01:07Z</time>
      </trkpt>
      <trkpt lat="43.44668" lon="6.61112">
        <ele>186.15</ele>
        <time>2013-10-07T08:01:10Z</time>
      </trkpt>
      <trkpt lat="43.4467" lon="6.61109">
        <ele>186.63</ele>
        <time>2013-10-07T08:01:13Z</time>
      </trkpt>
      <trkpt lat="43.44675" lon="6.611">
        <ele>188.56</ele>
        <time>2013-10-07T08:01:28Z</time>
      </trkpt>
      <trkpt lat="43.44673" lon="6.61089">
        <ele>190</ele>
        <time>2013-10-07T08:01:44Z</time>
      </trkpt>
      <trkpt lat="43.44675" lon="6.6108">
        <ele>192.88</ele>
        <time>2013-10-07T08:01:58Z</time>
      </trkpt>
      <trkpt lat="43.44674" lon="6.61074">
        <ele>193.36</ele>
        <time>2013-10-07T08:02:12Z</time>
      </trkpt>
      <trkpt lat="43.44671" lon="6.6107">
        <ele>192.88</ele>
        <time>2013-10-07T08:02:28Z</time>
      </trkpt>
      <trkpt lat="43.44674" lon="6.61061">
        <ele>192.88</ele>
        <time>2013-10-07T08:02:42Z</time>
      </trkpt>
      <trkpt lat="43.4468" lon="6.61047">
        <ele>195.28</ele>
        <time>2013-10-07T08:02:58Z</time>
      </trkpt>
      <trkpt lat="43.44679" lon="6.61045">
        <ele>196.25</ele>
        <time>2013-10-07T08:03:02Z</time>
      </trkpt>
      <trkpt lat="43.44673" lon="6.61038">
        <ele>199.13</ele>
        <time>2013-10-07T08:03:18Z</time>
      </trkpt>
      <trkpt lat="43.44671" lon="6.61028">
        <ele>201.53</ele>
        <time>2013-10-07T08:03:32Z</time>
      </trkpt>
      <trkpt lat="43.44672" lon="6.61026">
        <ele>201.53</ele>
        <time>2013-10-07T08:03:45Z</time>
      </trkpt>
      <trkpt lat="43.44676" lon="6.6102">
        <ele>204.42</ele>
        <time>2013-10-07T08:03:59Z</time>
      </trkpt>
      <trkpt lat="43.44673" lon="6.61019">
        <ele>203.46</ele>
        <time>2013-10-07T08:04:12Z</time>
      </trkpt>
      <trkpt lat="43.44671" lon="6.61015">
        <ele>205.38</ele>
        <time>2013-10-07T08:04:24Z</time>
      </trkpt>
      <trkpt lat="43.44675" lon="6.6102">
        <ele>203.94</ele>
        <time>2013-10-07T08:04:39Z</time>
      </trkpt>
      <trkpt lat="43.44672" lon="6.61027">
        <ele>202.01</ele>
        <time>2013-10-07T08:04:50Z</time>
      </trkpt>
      <trkpt lat="43.44669" lon="6.61029">
        <ele>202.01</ele>
        <time>2013-10-07T08:05:03Z</time>
      </trkpt>
      <trkpt lat="43.44663" lon="6.61028">
        <ele>201.53</ele>
        <time>2013-10-07T08:05:15Z</time>
      </trkpt>
      <trkpt lat="43.4466" lon="6.61021">
        <ele>203.46</ele>
        <time>2013-10-07T08:05:28Z</time>
      </trkpt>
      <trkpt lat="43.44658" lon="6.61016">
        <ele>206.34</ele>
        <time>2013-10-07T08:05:41Z</time>
      </trkpt>
      <trkpt lat="43.44657" lon="6.61011">
        <ele>208.26</ele>
        <time>2013-10-07T08:05:54Z</time>
      </trkpt>
      <trkpt lat="43.44653" lon="6.61006">
        <ele>209.7</ele>
        <time>2013-10-07T08:06:07Z</time>
      </trkpt>
      <trkpt lat="43.44647" lon="6.61">
        <ele>211.63</ele>
        <time>2013-10-07T08:06:22Z</time>
      </trkpt>
      <trkpt lat="43.44644" lon="6.60996">
        <ele>214.03</ele>
        <time>2013-10-07T08:06:37Z</time>
      </trkpt>
      <trkpt lat="43.44639" lon="6.60993">
        <ele>215.95</ele>
        <time>2013-10-07T08:06:55Z</time>
      </trkpt>
      <trkpt lat="43.44637" lon="6.60987">
        <ele>218.84</ele>
        <time>2013-10-07T08:07:13Z</time>
      </trkpt>
      <trkpt lat="43.44633" lon="6.60981">
        <ele>221.72</ele>
        <time>2013-10-07T08:07:26Z</time>
      </trkpt>
      <trkpt lat="43.44633" lon="6.6098">
        <ele>221.72</ele>
        <time>2013-10-07T08:07:27Z</time>
      </trkpt>
      <trkpt lat="43.44629" lon="6.60977">
        <ele>224.12</ele>
        <time>2013-10-07T08:07:39Z</time>
      </trkpt>
      <trkpt lat="43.44624" lon="6.60977">
        <ele>227.49</ele>
        <time>2013-10-07T08:07:55Z</time>
      </trkpt>
      <trkpt lat="43.44626" lon="6.60972">
        <ele>228.93</ele>
        <time>2013-10-07T08:08:09Z</time>
      </trkpt>
      <trkpt lat="43.44622" lon="6.60968">
        <ele>232.3</ele>
        <time>2013-10-07T08:08:21Z</time>
      </trkpt>
      <trkpt lat="43.44618" lon="6.60957">
        <ele>235.18</ele>
        <time>2013-10-07T08:08:35Z</time>
      </trkpt>
      <trkpt lat="43.44619" lon="6.6096">
        <ele>235.18</ele>
        <time>2013-10-07T08:08:54Z</time>
      </trkpt>
      <trkpt lat="43.4462" lon="6.60954">
        <ele>235.66</ele>
        <time>2013-10-07T08:09:12Z</time>
      </trkpt>
      <trkpt lat="43.44621" lon="6.60955">
        <ele>235.66</ele>
        <time>2013-10-07T08:09:30Z</time>
      </trkpt>
      <trkpt lat="43.4462" lon="6.60955">
        <ele>235.18</ele>
        <time>2013-10-07T08:09:46Z</time>
      </trkpt>
      <trkpt lat="43.44619" lon="6.60957">
        <ele>235.66</ele>
        <time>2013-10-07T08:10:08Z</time>
      </trkpt>
      <trkpt lat="43.4462" lon="6.60956">
        <ele>235.66</ele>
        <time>2013-10-07T08:10:24Z</time>
      </trkpt>
      <trkpt lat="43.44619" lon="6.60955">
        <ele>234.22</ele>
        <time>2013-10-07T08:10:38Z</time>
      </trkpt>
      <trkpt lat="43.44617" lon="6.6095">
        <ele>233.26</ele>
        <time>2013-10-07T08:10:51Z</time>
      </trkpt>
      <trkpt lat="43.44616" lon="6.60947">
        <ele>230.85</ele>
        <time>2013-10-07T08:11:05Z</time>
      </trkpt>
      <trkpt lat="43.44613" lon="6.60941">
        <ele>227.49</ele>
        <time>2013-10-07T08:11:17Z</time>
      </trkpt>
      <trkpt lat="43.44612" lon="6.60928">
        <ele>225.57</ele>
        <time>2013-10-07T08:11:31Z</time>
      </trkpt>
      <trkpt lat="43.44614" lon="6.60926">
        <ele>225.09</ele>
        <time>2013-10-07T08:11:52Z</time>
      </trkpt>
      <trkpt lat="43.44615" lon="6.60928">
        <ele>224.61</ele>
        <time>2013-10-07T08:12:11Z</time>
      </trkpt>
      <trkpt lat="43.44616" lon="6.6093">
        <ele>224.61</ele>
        <time>2013-10-07T08:12:35Z</time>
      </trkpt>
      <trkpt lat="43.44616" lon="6.60916">
        <ele>226.05</ele>
        <time>2013-10-07T08:12:58Z</time>
      </trkpt>
      <trkpt lat="43.44617" lon="6.60909">
        <ele>227.01</ele>
        <time>2013-10-07T08:13:10Z</time>
      </trkpt>
      <trkpt lat="43.44616" lon="6.60905">
        <ele>228.93</ele>
        <time>2013-10-07T08:13:23Z</time>
      </trkpt>
      <trkpt lat="43.44615" lon="6.60899">
        <ele>228.93</ele>
        <time>2013-10-07T08:13:35Z</time>
      </trkpt>
      <trkpt lat="43.44618" lon="6.60899">
        <ele>228.93</ele>
        <time>2013-10-07T08:13:51Z</time>
      </trkpt>
      <trkpt lat="43.44617" lon="6.60897">
        <ele>229.41</ele>
        <time>2013-10-07T08:13:54Z</time>
      </trkpt>
      <trkpt lat="43.44614" lon="6.60896">
        <ele>227.97</ele>
        <time>2013-10-07T08:14:06Z</time>
      </trkpt>
      <trkpt lat="43.44617" lon="6.60892">
        <ele>227.97</ele>
        <time>2013-10-07T08:14:17Z</time>
      </trkpt>
      <trkpt lat="43.44618" lon="6.60888">
        <ele>228.45</ele>
        <time>2013-10-07T08:14:32Z</time>
      </trkpt>
      <trkpt lat="43.44619" lon="6.60885">
        <ele>228.45</ele>
        <time>2013-10-07T08:14:48Z</time>
      </trkpt>
      <trkpt lat="43.44619" lon="6.60878">
        <ele>227.01</ele>
        <time>2013-10-07T08:15:06Z</time>
      </trkpt>
      <trkpt lat="43.44616" lon="6.6088">
        <ele>227.01</ele>
        <time>2013-10-07T08:15:26Z</time>
      </trkpt>
      <trkpt lat="43.4462" lon="6.60879">
        <ele>227.97</ele>
        <time>2013-10-07T08:15:40Z</time>
      </trkpt>
      <trkpt lat="43.44625" lon="6.6088">
        <ele>229.89</ele>
        <time>2013-10-07T08:15:49Z</time>
      </trkpt>
      <trkpt lat="43.44629" lon="6.60879">
        <ele>230.85</ele>
        <time>2013-10-07T08:16:03Z</time>
      </trkpt>
      <trkpt lat="43.44633" lon="6.60881">
        <ele>232.78</ele>
        <time>2013-10-07T08:16:20Z</time>
      </trkpt>
      <trkpt lat="43.44635" lon="6.60881">
        <ele>235.18</ele>
        <time>2013-10-07T08:16:36Z</time>
      </trkpt>
      <trkpt lat="43.44639" lon="6.60887">
        <ele>237.58</ele>
        <time>2013-10-07T08:16:54Z</time>
      </trkpt>
      <trkpt lat="43.44646" lon="6.60882">
        <ele>239.99</ele>
        <time>2013-10-07T08:17:09Z</time>
      </trkpt>
      <trkpt lat="43.44651" lon="6.6088">
        <ele>243.35</ele>
        <time>2013-10-07T08:17:26Z</time>
      </trkpt>
      <trkpt lat="43.44658" lon="6.60873">
        <ele>244.79</ele>
        <time>2013-10-07T08:17:41Z</time>
      </trkpt>
      <trkpt lat="43.44661" lon="6.60865">
        <ele>246.23</ele>
        <time>2013-10-07T08:17:57Z</time>
      </trkpt>
      <trkpt lat="43.44668" lon="6.60863">
        <ele>249.6</ele>
        <time>2013-10-07T08:18:11Z</time>
      </trkpt>
      <trkpt lat="43.44673" lon="6.60863">
        <ele>251.52</ele>
        <time>2013-10-07T08:18:23Z</time>
      </trkpt>
      <trkpt lat="43.44672" lon="6.60856">
        <ele>252.96</ele>
        <time>2013-10-07T08:18:39Z</time>
      </trkpt>
      <trkpt lat="43.44674" lon="6.60853">
        <ele>253.44</ele>
        <time>2013-10-07T08:18:53Z</time>
      </trkpt>
      <trkpt lat="43.44675" lon="6.60852">
        <ele>253.93</ele>
        <time>2013-10-07T08:19:25Z</time>
      </trkpt>
      <trkpt lat="43.44677" lon="6.6085">
        <ele>254.41</ele>
        <time>2013-10-07T08:19:45Z</time>
      </trkpt>
      <trkpt lat="43.44683" lon="6.6085">
        <ele>257.77</ele>
        <time>2013-10-07T08:19:59Z</time>
      </trkpt>
      <trkpt lat="43.44685" lon="6.60856">
        <ele>257.77</ele>
        <time>2013-10-07T08:20:22Z</time>
      </trkpt>
      <trkpt lat="43.44685" lon="6.60856">
        <ele>255.85</ele>
        <time>2013-10-07T08:20:27Z</time>
      </trkpt>
      <trkpt lat="43.44685" lon="6.60856">
        <ele>259.21</ele>
        <time>2013-10-07T08:20:28Z</time>
      </trkpt>
      <trkpt lat="43.44685" lon="6.60855">
        <ele>257.77</ele>
        <time>2013-10-07T08:20:29Z</time>
      </trkpt>
      <trkpt lat="43.44686" lon="6.60849">
        <ele>256.81</ele>
        <time>2013-10-07T08:20:51Z</time>
      </trkpt>
      <trkpt lat="43.44685" lon="6.60847">
        <ele>256.81</ele>
        <time>2013-10-07T08:21:24Z</time>
      </trkpt>
      <trkpt lat="43.44685" lon="6.60848">
        <ele>256.81</ele>
        <time>2013-10-07T08:22:05Z</time>
      </trkpt>
      <trkpt lat="43.44686" lon="6.60848">
        <ele>257.29</ele>
        <time>2013-10-07T08:22:46Z</time>
      </trkpt>
      <trkpt lat="43.44687" lon="6.60847">
        <ele>258.25</ele>
        <time>2013-10-07T08:22:52Z</time>
      </trkpt>
      <trkpt lat="43.44689" lon="6.60845">
        <ele>258.25</ele>
        <time>2013-10-07T08:23:10Z</time>
      </trkpt>
      <trkpt lat="43.44689" lon="6.60847">
        <ele>257.77</ele>
        <time>2013-10-07T08:23:39Z</time>
      </trkpt>
      <trkpt lat="43.44687" lon="6.60848">
        <ele>258.73</ele>
        <time>2013-10-07T08:24:04Z</time>
      </trkpt>
      <trkpt lat="43.44686" lon="6.60847">
        <ele>258.25</ele>
        <time>2013-10-07T08:24:32Z</time>
      </trkpt>
      <trkpt lat="43.44686" lon="6.60837">
        <ele>259.21</ele>
        <time>2013-10-07T08:24:58Z</time>
      </trkpt>
      <trkpt lat="43.44685" lon="6.6083">
        <ele>261.62</ele>
        <time>2013-10-07T08:25:12Z</time>
      </trkpt>
      <trkpt lat="43.44684" lon="6.60822">
        <ele>264.5</ele>
        <time>2013-10-07T08:25:25Z</time>
      </trkpt>
      <trkpt lat="43.44684" lon="6.6082">
        <ele>265.46</ele>
        <time>2013-10-07T08:25:39Z</time>
      </trkpt>
      <trkpt lat="43.44685" lon="6.60814">
        <ele>268.83</ele>
        <time>2013-10-07T08:25:52Z</time>
      </trkpt>
      <trkpt lat="43.44688" lon="6.60805">
        <ele>270.27</ele>
        <time>2013-10-07T08:26:03Z</time>
      </trkpt>
      <trkpt lat="43.44692" lon="6.60804">
        <ele>271.23</ele>
        <time>2013-10-07T08:26:17Z</time>
      </trkpt>
      <trkpt lat="43.44695" lon="6.60803">
        <ele>271.23</ele>
        <time>2013-10-07T08:26:30Z</time>
      </trkpt>
      <trkpt lat="43.44704" lon="6.60797">
        <ele>271.23</ele>
        <time>2013-10-07T08:26:42Z</time>
      </trkpt>
      <trkpt lat="43.44709" lon="6.60804">
        <ele>270.27</ele>
        <time>2013-10-07T08:26:55Z</time>
      </trkpt>
      <trkpt lat="43.44709" lon="6.60805">
        <ele>270.27</ele>
        <time>2013-10-07T08:26:56Z</time>
      </trkpt>
      <trkpt lat="43.44712" lon="6.60808">
        <ele>269.31</ele>
        <time>2013-10-07T08:27:10Z</time>
      </trkpt>
      <trkpt lat="43.44711" lon="6.60808">
        <ele>268.35</ele>
        <time>2013-10-07T08:27:35Z</time>
      </trkpt>
      <trkpt lat="43.44712" lon="6.60809">
        <ele>268.35</ele>
        <time>2013-10-07T08:27:37Z</time>
      </trkpt>
      <trkpt lat="43.44715" lon="6.60811">
        <ele>266.9</ele>
        <time>2013-10-07T08:27:50Z</time>
      </trkpt>
      <trkpt lat="43.44712" lon="6.60814">
        <ele>267.86</ele>
        <time>2013-10-07T08:28:08Z</time>
      </trkpt>
      <trkpt lat="43.4471" lon="6.60804">
        <ele>269.31</ele>
        <time>2013-10-07T08:28:20Z</time>
      </trkpt>
      <trkpt lat="43.44705" lon="6.60793">
        <ele>270.27</ele>
        <time>2013-10-07T08:28:33Z</time>
      </trkpt>
      <trkpt lat="43.44704" lon="6.60788">
        <ele>269.79</ele>
        <time>2013-10-07T08:28:45Z</time>
      </trkpt>
      <trkpt lat="43.44703" lon="6.60789">
        <ele>270.27</ele>
        <time>2013-10-07T08:29:00Z</time>
      </trkpt>
      <trkpt lat="43.44705" lon="6.60784">
        <ele>270.27</ele>
        <time>2013-10-07T08:29:24Z</time>
      </trkpt>
      <trkpt lat="43.44708" lon="6.60773">
        <ele>271.23</ele>
        <time>2013-10-07T08:29:38Z</time>
      </trkpt>
      <trkpt lat="43.44711" lon="6.60765">
        <ele>271.71</ele>
        <time>2013-10-07T08:29:51Z</time>
      </trkpt>
      <trkpt lat="43.44712" lon="6.60761">
        <ele>272.67</ele>
        <time>2013-10-07T08:29:57Z</time>
      </trkpt>
      <trkpt lat="43.44713" lon="6.60752">
        <ele>273.63</ele>
        <time>2013-10-07T08:30:10Z</time>
      </trkpt>
      <trkpt lat="43.44715" lon="6.60742">
        <ele>275.07</ele>
        <time>2013-10-07T08:30:22Z</time>
      </trkpt>
      <trkpt lat="43.44719" lon="6.60729">
        <ele>276.52</ele>
        <time>2013-10-07T08:30:36Z</time>
      </trkpt>
      <trkpt lat="43.44719" lon="6.60722">
        <ele>277.96</ele>
        <time>2013-10-07T08:30:47Z</time>
      </trkpt>
      <trkpt lat="43.44716" lon="6.60711">
        <ele>278.92</ele>
        <time>2013-10-07T08:31:01Z</time>
      </trkpt>
      <trkpt lat="43.44714" lon="6.60697">
        <ele>280.84</ele>
        <time>2013-10-07T08:31:14Z</time>
      </trkpt>
      <trkpt lat="43.44712" lon="6.60689">
        <ele>281.8</ele>
        <time>2013-10-07T08:31:27Z</time>
      </trkpt>
      <trkpt lat="43.44716" lon="6.60681">
        <ele>280.84</ele>
        <time>2013-10-07T08:31:41Z</time>
      </trkpt>
      <trkpt lat="43.44723" lon="6.60677">
        <ele>284.21</ele>
        <time>2013-10-07T08:31:55Z</time>
      </trkpt>
      <trkpt lat="43.44726" lon="6.60666">
        <ele>285.65</ele>
        <time>2013-10-07T08:32:07Z</time>
      </trkpt>
      <trkpt lat="43.44727" lon="6.60658">
        <ele>287.09</ele>
        <time>2013-10-07T08:32:20Z</time>
      </trkpt>
      <trkpt lat="43.4473" lon="6.60658">
        <ele>289.49</ele>
        <time>2013-10-07T08:32:33Z</time>
      </trkpt>
      <trkpt lat="43.44732" lon="6.60656">
        <ele>291.42</ele>
        <time>2013-10-07T08:32:47Z</time>
      </trkpt>
      <trkpt lat="43.4473" lon="6.60653">
        <ele>291.9</ele>
        <time>2013-10-07T08:33:00Z</time>
      </trkpt>
      <trkpt lat="43.44734" lon="6.60656">
        <ele>294.3</ele>
        <time>2013-10-07T08:33:14Z</time>
      </trkpt>
      <trkpt lat="43.44739" lon="6.60657">
        <ele>296.7</ele>
        <time>2013-10-07T08:33:25Z</time>
      </trkpt>
      <trkpt lat="43.4474" lon="6.60654">
        <ele>298.63</ele>
        <time>2013-10-07T08:33:34Z</time>
      </trkpt>
      <trkpt lat="43.44742" lon="6.60654">
        <ele>299.11</ele>
        <time>2013-10-07T08:33:46Z</time>
      </trkpt>
      <trkpt lat="43.44743" lon="6.60655">
        <ele>298.63</ele>
        <time>2013-10-07T08:34:07Z</time>
      </trkpt>
      <trkpt lat="43.44742" lon="6.60653">
        <ele>299.11</ele>
        <time>2013-10-07T08:34:28Z</time>
      </trkpt>
      <trkpt lat="43.44741" lon="6.60655">
        <ele>298.63</ele>
        <time>2013-10-07T08:34:56Z</time>
      </trkpt>
      <trkpt lat="43.44742" lon="6.60649">
        <ele>299.11</ele>
        <time>2013-10-07T08:35:09Z</time>
      </trkpt>
      <trkpt lat="43.44742" lon="6.60647">
        <ele>298.63</ele>
        <time>2013-10-07T08:35:16Z</time>
      </trkpt>
      <trkpt lat="43.44741" lon="6.60644">
        <ele>298.63</ele>
        <time>2013-10-07T08:35:28Z</time>
      </trkpt>
      <trkpt lat="43.44742" lon="6.60641">
        <ele>300.07</ele>
        <time>2013-10-07T08:35:32Z</time>
      </trkpt>
      <trkpt lat="43.44745" lon="6.60638">
        <ele>299.11</ele>
        <time>2013-10-07T08:35:44Z</time>
      </trkpt>
      <trkpt lat="43.44734" lon="6.6063">
        <ele>298.63</ele>
        <time>2013-10-07T08:36:00Z</time>
      </trkpt>
      <trkpt lat="43.44734" lon="6.60624">
        <ele>299.59</ele>
        <time>2013-10-07T08:36:12Z</time>
      </trkpt>
      <trkpt lat="43.44732" lon="6.60626">
        <ele>299.59</ele>
        <time>2013-10-07T08:36:27Z</time>
      </trkpt>
      <trkpt lat="43.44737" lon="6.60629">
        <ele>299.59</ele>
        <time>2013-10-07T08:36:41Z</time>
      </trkpt>
      <trkpt lat="43.44737" lon="6.60626">
        <ele>301.03</ele>
        <time>2013-10-07T08:36:46Z</time>
      </trkpt>
      <trkpt lat="43.44738" lon="6.60624">
        <ele>299.59</ele>
        <time>2013-10-07T08:37:01Z</time>
      </trkpt>
      <trkpt lat="43.44736" lon="6.60621">
        <ele>300.07</ele>
        <time>2013-10-07T08:37:37Z</time>
      </trkpt>
      <trkpt lat="43.44739" lon="6.60619">
        <ele>299.59</ele>
        <time>2013-10-07T08:38:08Z</time>
      </trkpt>
      <trkpt lat="43.44733" lon="6.60618">
        <ele>297.67</ele>
        <time>2013-10-07T08:38:22Z</time>
      </trkpt>
      <trkpt lat="43.44731" lon="6.60617">
        <ele>296.22</ele>
        <time>2013-10-07T08:38:34Z</time>
      </trkpt>
      <trkpt lat="43.44732" lon="6.60614">
        <ele>294.3</ele>
        <time>2013-10-07T08:38:46Z</time>
      </trkpt>
      <trkpt lat="43.44733" lon="6.60609">
        <ele>292.86</ele>
        <time>2013-10-07T08:38:57Z</time>
      </trkpt>
      <trkpt lat="43.44736" lon="6.60605">
        <ele>291.42</ele>
        <time>2013-10-07T08:39:09Z</time>
      </trkpt>
      <trkpt lat="43.44738" lon="6.60606">
        <ele>290.94</ele>
        <time>2013-10-07T08:39:22Z</time>
      </trkpt>
      <trkpt lat="43.44741" lon="6.60605">
        <ele>290.46</ele>
        <time>2013-10-07T08:39:40Z</time>
      </trkpt>
      <trkpt lat="43.44742" lon="6.60604">
        <ele>289.01</ele>
        <time>2013-10-07T08:39:52Z</time>
      </trkpt>
      <trkpt lat="43.44738" lon="6.60598">
        <ele>290.94</ele>
        <time>2013-10-07T08:40:05Z</time>
      </trkpt>
      <trkpt lat="43.44739" lon="6.60595">
        <ele>292.38</ele>
        <time>2013-10-07T08:40:22Z</time>
      </trkpt>
      <trkpt lat="43.4474" lon="6.60593">
        <ele>293.34</ele>
        <time>2013-10-07T08:40:37Z</time>
      </trkpt>
      <trkpt lat="43.4474" lon="6.60595">
        <ele>292.38</ele>
        <time>2013-10-07T08:40:52Z</time>
      </trkpt>
      <trkpt lat="43.44742" lon="6.60593">
        <ele>290.46</ele>
        <time>2013-10-07T08:41:08Z</time>
      </trkpt>
      <trkpt lat="43.44748" lon="6.60589">
        <ele>289.49</ele>
        <time>2013-10-07T08:41:25Z</time>
      </trkpt>
      <trkpt lat="43.44744" lon="6.60592">
        <ele>289.01</ele>
        <time>2013-10-07T08:41:43Z</time>
      </trkpt>
      <trkpt lat="43.44744" lon="6.60588">
        <ele>287.57</ele>
        <time>2013-10-07T08:42:00Z</time>
      </trkpt>
      <trkpt lat="43.44747" lon="6.60589">
        <ele>286.13</ele>
        <time>2013-10-07T08:42:14Z</time>
      </trkpt>
      <trkpt lat="43.44746" lon="6.60588">
        <ele>286.13</ele>
        <time>2013-10-07T08:42:28Z</time>
      </trkpt>
      <trkpt lat="43.44746" lon="6.60589">
        <ele>287.09</ele>
        <time>2013-10-07T08:42:37Z</time>
      </trkpt>
      <trkpt lat="43.4475" lon="6.60585">
        <ele>287.57</ele>
        <time>2013-10-07T08:43:02Z</time>
      </trkpt>
      <trkpt lat="43.44748" lon="6.60587">
        <ele>287.09</ele>
        <time>2013-10-07T08:43:28Z</time>
      </trkpt>
      <trkpt lat="43.44748" lon="6.60581">
        <ele>287.57</ele>
        <time>2013-10-07T08:43:53Z</time>
      </trkpt>
      <trkpt lat="43.44747" lon="6.60578">
        <ele>289.49</ele>
        <time>2013-10-07T08:44:06Z</time>
      </trkpt>
      <trkpt lat="43.44748" lon="6.60578">
        <ele>290.94</ele>
        <time>2013-10-07T08:44:16Z</time>
      </trkpt>
      <trkpt lat="43.44748" lon="6.60573">
        <ele>291.42</ele>
        <time>2013-10-07T08:44:22Z</time>
      </trkpt>
      <trkpt lat="43.44747" lon="6.60571">
        <ele>291.9</ele>
        <time>2013-10-07T08:44:32Z</time>
      </trkpt>
      <trkpt lat="43.4475" lon="6.60571">
        <ele>293.34</ele>
        <time>2013-10-07T08:44:48Z</time>
      </trkpt>
      <trkpt lat="43.4475" lon="6.60567">
        <ele>294.78</ele>
        <time>2013-10-07T08:44:59Z</time>
      </trkpt>
      <trkpt lat="43.44749" lon="6.60562">
        <ele>294.3</ele>
        <time>2013-10-07T08:45:10Z</time>
      </trkpt>
      <trkpt lat="43.44748" lon="6.60562">
        <ele>295.26</ele>
        <time>2013-10-07T08:45:22Z</time>
      </trkpt>
      <trkpt lat="43.44753" lon="6.60559">
        <ele>293.34</ele>
        <time>2013-10-07T08:45:39Z</time>
      </trkpt>
      <trkpt lat="43.44752" lon="6.60568">
        <ele>295.26</ele>
        <time>2013-10-07T08:46:05Z</time>
      </trkpt>
      <trkpt lat="43.44747" lon="6.60564">
        <ele>295.74</ele>
        <time>2013-10-07T08:46:24Z</time>
      </trkpt>
      <trkpt lat="43.4475" lon="6.60565">
        <ele>295.74</ele>
        <time>2013-10-07T08:46:36Z</time>
      </trkpt>
      <trkpt lat="43.44749" lon="6.60569">
        <ele>295.74</ele>
        <time>2013-10-07T08:46:55Z</time>
      </trkpt>
      <trkpt lat="43.44749" lon="6.60564">
        <ele>295.74</ele>
        <time>2013-10-07T08:47:14Z</time>
      </trkpt>
      <trkpt lat="43.44749" lon="6.60554">
        <ele>297.18</ele>
        <time>2013-10-07T08:47:30Z</time>
      </trkpt>
      <trkpt lat="43.44745" lon="6.60551">
        <ele>297.67</ele>
        <time>2013-10-07T08:47:46Z</time>
      </trkpt>
      <trkpt lat="43.44749" lon="6.60548">
        <ele>297.18</ele>
        <time>2013-10-07T08:47:58Z</time>
      </trkpt>
      <trkpt lat="43.44747" lon="6.60552">
        <ele>297.18</ele>
        <time>2013-10-07T08:48:23Z</time>
      </trkpt>
      <trkpt lat="43.44749" lon="6.60552">
        <ele>296.7</ele>
        <time>2013-10-07T08:48:47Z</time>
      </trkpt>
      <trkpt lat="43.44742" lon="6.60551">
        <ele>298.63</ele>
        <time>2013-10-07T08:49:09Z</time>
      </trkpt>
      <trkpt lat="43.44742" lon="6.60547">
        <ele>297.67</ele>
        <time>2013-10-07T08:49:24Z</time>
      </trkpt>
      <trkpt lat="43.44738" lon="6.6054">
        <ele>295.74</ele>
        <time>2013-10-07T08:49:41Z</time>
      </trkpt>
      <trkpt lat="43.44741" lon="6.60538">
        <ele>296.7</ele>
        <time>2013-10-07T08:49:53Z</time>
      </trkpt>
      <trkpt lat="43.44741" lon="6.60538">
        <ele>296.7</ele>
        <time>2013-10-07T08:50:13Z</time>
      </trkpt>
      <trkpt lat="43.44741" lon="6.60538">
        <ele>298.15</ele>
        <time>2013-10-07T08:50:16Z</time>
      </trkpt>
      <trkpt lat="43.44742" lon="6.60537">
        <ele>296.22</ele>
        <time>2013-10-07T08:50:18Z</time>
      </trkpt>
      <trkpt lat="43.44742" lon="6.60536">
        <ele>298.15</ele>
        <time>2013-10-07T08:50:19Z</time>
      </trkpt>
      <trkpt lat="43.44744" lon="6.60534">
        <ele>298.15</ele>
        <time>2013-10-07T08:50:33Z</time>
      </trkpt>
      <trkpt lat="43.44747" lon="6.60535">
        <ele>300.07</ele>
        <time>2013-10-07T08:50:40Z</time>
      </trkpt>
      <trkpt lat="43.44753" lon="6.60529">
        <ele>302.95</ele>
        <time>2013-10-07T08:50:55Z</time>
      </trkpt>
      <trkpt lat="43.44751" lon="6.6052">
        <ele>302.95</ele>
        <time>2013-10-07T08:51:08Z</time>
      </trkpt>
      <trkpt lat="43.44753" lon="6.6051">
        <ele>302.95</ele>
        <time>2013-10-07T08:51:24Z</time>
      </trkpt>
      <trkpt lat="43.44752" lon="6.60506">
        <ele>304.39</ele>
        <time>2013-10-07T08:51:37Z</time>
      </trkpt>
      <trkpt lat="43.44752" lon="6.60503">
        <ele>303.43</ele>
        <time>2013-10-07T08:51:47Z</time>
      </trkpt>
      <trkpt lat="43.44749" lon="6.60507">
        <ele>302.47</ele>
        <time>2013-10-07T08:52:02Z</time>
      </trkpt>
      <trkpt lat="43.4475" lon="6.60501">
        <ele>302.95</ele>
        <time>2013-10-07T08:52:31Z</time>
      </trkpt>
      <trkpt lat="43.44755" lon="6.60502">
        <ele>302.95</ele>
        <time>2013-10-07T08:52:53Z</time>
      </trkpt>
      <trkpt lat="43.44756" lon="6.605">
        <ele>302.95</ele>
        <time>2013-10-07T08:53:18Z</time>
      </trkpt>
      <trkpt lat="43.44753" lon="6.60501">
        <ele>302.95</ele>
        <time>2013-10-07T08:53:38Z</time>
      </trkpt>
      <trkpt lat="43.44753" lon="6.60502">
        <ele>303.43</ele>
        <time>2013-10-07T08:53:55Z</time>
      </trkpt>
      <trkpt lat="43.4475" lon="6.605">
        <ele>302.47</ele>
        <time>2013-10-07T08:54:07Z</time>
      </trkpt>
      <trkpt lat="43.44748" lon="6.60498">
        <ele>300.07</ele>
        <time>2013-10-07T08:54:21Z</time>
      </trkpt>
      <trkpt lat="43.44746" lon="6.60499">
        <ele>298.63</ele>
        <time>2013-10-07T08:54:34Z</time>
      </trkpt>
      <trkpt lat="43.44745" lon="6.60496">
        <ele>296.22</ele>
        <time>2013-10-07T08:54:48Z</time>
      </trkpt>
      <trkpt lat="43.44745" lon="6.60497">
        <ele>294.78</ele>
        <time>2013-10-07T08:55:00Z</time>
      </trkpt>
      <trkpt lat="43.44742" lon="6.60489">
        <ele>295.26</ele>
        <time>2013-10-07T08:55:14Z</time>
      </trkpt>
      <trkpt lat="43.44742" lon="6.60487">
        <ele>296.22</ele>
        <time>2013-10-07T08:55:30Z</time>
      </trkpt>
      <trkpt lat="43.44742" lon="6.60487">
        <ele>296.22</ele>
        <time>2013-10-07T08:55:50Z</time>
      </trkpt>
      <trkpt lat="43.44741" lon="6.60485">
        <ele>296.22</ele>
        <time>2013-10-07T08:56:12Z</time>
      </trkpt>
      <trkpt lat="43.44741" lon="6.60477">
        <ele>293.82</ele>
        <time>2013-10-07T08:56:29Z</time>
      </trkpt>
      <trkpt lat="43.4474" lon="6.60469">
        <ele>293.34</ele>
        <time>2013-10-07T08:56:44Z</time>
      </trkpt>
      <trkpt lat="43.44741" lon="6.60463">
        <ele>295.26</ele>
        <time>2013-10-07T08:56:59Z</time>
      </trkpt>
      <trkpt lat="43.44741" lon="6.60454">
        <ele>297.18</ele>
        <time>2013-10-07T08:57:12Z</time>
      </trkpt>
      <trkpt lat="43.44739" lon="6.60451">
        <ele>297.18</ele>
        <time>2013-10-07T08:57:34Z</time>
      </trkpt>
      <trkpt lat="43.44739" lon="6.6045">
        <ele>296.22</ele>
        <time>2013-10-07T08:57:52Z</time>
      </trkpt>
      <trkpt lat="43.44737" lon="6.60449">
        <ele>294.3</ele>
        <time>2013-10-07T08:58:04Z</time>
      </trkpt>
      <trkpt lat="43.44737" lon="6.6045">
        <ele>293.82</ele>
        <time>2013-10-07T08:58:06Z</time>
      </trkpt>
      <trkpt lat="43.44735" lon="6.60451">
        <ele>291.9</ele>
        <time>2013-10-07T08:58:16Z</time>
      </trkpt>
      <trkpt lat="43.44733" lon="6.60447">
        <ele>289.49</ele>
        <time>2013-10-07T08:58:29Z</time>
      </trkpt>
      <trkpt lat="43.44732" lon="6.60446">
        <ele>289.01</ele>
        <time>2013-10-07T08:58:34Z</time>
      </trkpt>
      <trkpt lat="43.44732" lon="6.60445">
        <ele>288.53</ele>
        <time>2013-10-07T08:58:36Z</time>
      </trkpt>
      <trkpt lat="43.4473" lon="6.60439">
        <ele>289.01</ele>
        <time>2013-10-07T08:58:49Z</time>
      </trkpt>
      <trkpt lat="43.44727" lon="6.60437">
        <ele>286.61</ele>
        <time>2013-10-07T08:59:06Z</time>
      </trkpt>
      <trkpt lat="43.44722" lon="6.60432">
        <ele>283.73</ele>
        <time>2013-10-07T08:59:19Z</time>
      </trkpt>
      <trkpt lat="43.44726" lon="6.60428">
        <ele>286.13</ele>
        <time>2013-10-07T08:59:32Z</time>
      </trkpt>
      <trkpt lat="43.44726" lon="6.60422">
        <ele>288.53</ele>
        <time>2013-10-07T08:59:45Z</time>
      </trkpt>
      <trkpt lat="43.44727" lon="6.60426">
        <ele>290.46</ele>
        <time>2013-10-07T08:59:57Z</time>
      </trkpt>
      <trkpt lat="43.44728" lon="6.60427">
        <ele>290.46</ele>
        <time>2013-10-07T09:00:19Z</time>
      </trkpt>
      <trkpt lat="43.44729" lon="6.60428">
        <ele>290.46</ele>
        <time>2013-10-07T09:00:44Z</time>
      </trkpt>
      <trkpt lat="43.44732" lon="6.60425">
        <ele>290.94</ele>
        <time>2013-10-07T09:01:02Z</time>
      </trkpt>
      <trkpt lat="43.44732" lon="6.60419">
        <ele>291.9</ele>
        <time>2013-10-07T09:01:13Z</time>
      </trkpt>
      <trkpt lat="43.4473" lon="6.60418">
        <ele>291.9</ele>
        <time>2013-10-07T09:01:25Z</time>
      </trkpt>
      <trkpt lat="43.44733" lon="6.60421">
        <ele>291.42</ele>
        <time>2013-10-07T09:01:49Z</time>
      </trkpt>
      <trkpt lat="43.4473" lon="6.60411">
        <ele>292.38</ele>
        <time>2013-10-07T09:02:02Z</time>
      </trkpt>
      <trkpt lat="43.44731" lon="6.60408">
        <ele>291.42</ele>
        <time>2013-10-07T09:02:16Z</time>
      </trkpt>
      <trkpt lat="43.44731" lon="6.60407">
        <ele>291.42</ele>
        <time>2013-10-07T09:02:25Z</time>
      </trkpt>
      <trkpt lat="43.44731" lon="6.60401">
        <ele>290.94</ele>
        <time>2013-10-07T09:02:41Z</time>
      </trkpt>
      <trkpt lat="43.44732" lon="6.60401">
        <ele>291.42</ele>
        <time>2013-10-07T09:02:57Z</time>
      </trkpt>
      <trkpt lat="43.44736" lon="6.60398">
        <ele>294.78</ele>
        <time>2013-10-07T09:03:18Z</time>
      </trkpt>
      <trkpt lat="43.4474" lon="6.60396">
        <ele>297.67</ele>
        <time>2013-10-07T09:03:30Z</time>
      </trkpt>
      <trkpt lat="43.44739" lon="6.60398">
        <ele>298.63</ele>
        <time>2013-10-07T09:03:44Z</time>
      </trkpt>
      <trkpt lat="43.4474" lon="6.60396">
        <ele>299.11</ele>
        <time>2013-10-07T09:03:58Z</time>
      </trkpt>
      <trkpt lat="43.4474" lon="6.60399">
        <ele>299.59</ele>
        <time>2013-10-07T09:04:21Z</time>
      </trkpt>
      <trkpt lat="43.44741" lon="6.60397">
        <ele>301.51</ele>
        <time>2013-10-07T09:04:38Z</time>
      </trkpt>
      <trkpt lat="43.44747" lon="6.60398">
        <ele>303.91</ele>
        <time>2013-10-07T09:04:54Z</time>
      </trkpt>
      <trkpt lat="43.44746" lon="6.60393">
        <ele>305.36</ele>
        <time>2013-10-07T09:05:18Z</time>
      </trkpt>
      <trkpt lat="43.44754" lon="6.60392">
        <ele>305.36</ele>
        <time>2013-10-07T09:05:35Z</time>
      </trkpt>
      <trkpt lat="43.44763" lon="6.60387">
        <ele>306.32</ele>
        <time>2013-10-07T09:05:57Z</time>
      </trkpt>
      <trkpt lat="43.44758" lon="6.60392">
        <ele>305.84</ele>
        <time>2013-10-07T09:06:16Z</time>
      </trkpt>
      <trkpt lat="43.44762" lon="6.60392">
        <ele>306.32</ele>
        <time>2013-10-07T09:06:34Z</time>
      </trkpt>
      <trkpt lat="43.44762" lon="6.60401">
        <ele>309.2</ele>
        <time>2013-10-07T09:06:57Z</time>
      </trkpt>
      <trkpt lat="43.44764" lon="6.60404">
        <ele>312.09</ele>
        <time>2013-10-07T09:07:18Z</time>
      </trkpt>
      <trkpt lat="43.44769" lon="6.60402">
        <ele>311.6</ele>
        <time>2013-10-07T09:07:39Z</time>
      </trkpt>
      <trkpt lat="43.44767" lon="6.60405">
        <ele>313.05</ele>
        <time>2013-10-07T09:08:00Z</time>
      </trkpt>
      <trkpt lat="43.44761" lon="6.604">
        <ele>315.45</ele>
        <time>2013-10-07T09:08:18Z</time>
      </trkpt>
      <trkpt lat="43.44772" lon="6.60397">
        <ele>317.37</ele>
        <time>2013-10-07T09:08:41Z</time>
      </trkpt>
      <trkpt lat="43.4478" lon="6.60402">
        <ele>320.26</ele>
        <time>2013-10-07T09:08:58Z</time>
      </trkpt>
      <trkpt lat="43.4478" lon="6.60406">
        <ele>323.62</ele>
        <time>2013-10-07T09:09:12Z</time>
      </trkpt>
      <trkpt lat="43.4478" lon="6.60406">
        <ele>324.58</ele>
        <time>2013-10-07T09:09:29Z</time>
      </trkpt>
      <trkpt lat="43.44779" lon="6.60404">
        <ele>326.02</ele>
        <time>2013-10-07T09:09:52Z</time>
      </trkpt>
      <trkpt lat="43.4478" lon="6.60402">
        <ele>325.54</ele>
        <time>2013-10-07T09:10:10Z</time>
      </trkpt>
      <trkpt lat="43.44777" lon="6.60397">
        <ele>327.95</ele>
        <time>2013-10-07T09:10:35Z</time>
      </trkpt>
      <trkpt lat="43.44767" lon="6.60391">
        <ele>328.43</ele>
        <time>2013-10-07T09:10:54Z</time>
      </trkpt>
      <trkpt lat="43.44774" lon="6.60397">
        <ele>329.87</ele>
        <time>2013-10-07T09:11:12Z</time>
      </trkpt>
      <trkpt lat="43.44797" lon="6.60405">
        <ele>331.79</ele>
        <time>2013-10-07T09:11:30Z</time>
      </trkpt>
      <trkpt lat="43.44796" lon="6.60406">
        <ele>333.23</ele>
        <time>2013-10-07T09:11:32Z</time>
      </trkpt>
      <trkpt lat="43.44798" lon="6.60407">
        <ele>335.64</ele>
        <time>2013-10-07T09:11:48Z</time>
      </trkpt>
      <trkpt lat="43.448" lon="6.60408">
        <ele>336.12</ele>
        <time>2013-10-07T09:11:51Z</time>
      </trkpt>
      <trkpt lat="43.44822" lon="6.60429">
        <ele>339.96</ele>
        <time>2013-10-07T09:12:12Z</time>
      </trkpt>
      <trkpt lat="43.44818" lon="6.60405">
        <ele>345.73</ele>
        <time>2013-10-07T09:13:13Z</time>
      </trkpt>
      <trkpt lat="43.4482" lon="6.60408">
        <ele>348.62</ele>
        <time>2013-10-07T09:13:28Z</time>
      </trkpt>
      <trkpt lat="43.44819" lon="6.60407">
        <ele>348.62</ele>
        <time>2013-10-07T09:13:50Z</time>
      </trkpt>
      <trkpt lat="43.44816" lon="6.60408">
        <ele>348.13</ele>
        <time>2013-10-07T09:14:08Z</time>
      </trkpt>
      <trkpt lat="43.44815" lon="6.60407">
        <ele>348.62</ele>
        <time>2013-10-07T09:14:22Z</time>
      </trkpt>
      <trkpt lat="43.44816" lon="6.60413">
        <ele>348.13</ele>
        <time>2013-10-07T09:14:48Z</time>
      </trkpt>
      <trkpt lat="43.44817" lon="6.60414">
        <ele>348.13</ele>
        <time>2013-10-07T09:15:10Z</time>
      </trkpt>
      <trkpt lat="43.4482" lon="6.60414">
        <ele>349.1</ele>
        <time>2013-10-07T09:15:24Z</time>
      </trkpt>
      <trkpt lat="43.44818" lon="6.60418">
        <ele>349.1</ele>
        <time>2013-10-07T09:15:49Z</time>
      </trkpt>
      <trkpt lat="43.44815" lon="6.60427">
        <ele>349.1</ele>
        <time>2013-10-07T09:16:21Z</time>
      </trkpt>
      <trkpt lat="43.44814" lon="6.60431">
        <ele>349.58</ele>
        <time>2013-10-07T09:16:51Z</time>
      </trkpt>
      <trkpt lat="43.44819" lon="6.60414">
        <ele>350.54</ele>
        <time>2013-10-07T09:17:12Z</time>
      </trkpt>
      <trkpt lat="43.4482" lon="6.60406">
        <ele>352.46</ele>
        <time>2013-10-07T09:17:25Z</time>
      </trkpt>
      <trkpt lat="43.44819" lon="6.60403">
        <ele>354.38</ele>
        <time>2013-10-07T09:17:41Z</time>
      </trkpt>
      <trkpt lat="43.44821" lon="6.60398">
        <ele>357.27</ele>
        <time>2013-10-07T09:17:59Z</time>
      </trkpt>
      <trkpt lat="43.44819" lon="6.604">
        <ele>358.23</ele>
        <time>2013-10-07T09:18:15Z</time>
      </trkpt>
      <trkpt lat="43.44817" lon="6.604">
        <ele>358.23</ele>
        <time>2013-10-07T09:18:39Z</time>
      </trkpt>
      <trkpt lat="43.44817" lon="6.60403">
        <ele>358.23</ele>
        <time>2013-10-07T09:19:02Z</time>
      </trkpt>
      <trkpt lat="43.4482" lon="6.60399">
        <ele>359.67</ele>
        <time>2013-10-07T09:19:23Z</time>
      </trkpt>
      <trkpt lat="43.44821" lon="6.60393">
        <ele>361.59</ele>
        <time>2013-10-07T09:19:37Z</time>
      </trkpt>
      <trkpt lat="43.4482" lon="6.60388">
        <ele>363.52</ele>
        <time>2013-10-07T09:19:51Z</time>
      </trkpt>
      <trkpt lat="43.44823" lon="6.60387">
        <ele>364.48</ele>
        <time>2013-10-07T09:20:06Z</time>
      </trkpt>
      <trkpt lat="43.44822" lon="6.60388">
        <ele>364.96</ele>
        <time>2013-10-07T09:20:25Z</time>
      </trkpt>
      <trkpt lat="43.44821" lon="6.6039">
        <ele>364.96</ele>
        <time>2013-10-07T09:20:45Z</time>
      </trkpt>
      <trkpt lat="43.44819" lon="6.60393">
        <ele>364.96</ele>
        <time>2013-10-07T09:21:05Z</time>
      </trkpt>
      <trkpt lat="43.44822" lon="6.60382">
        <ele>368.32</ele>
        <time>2013-10-07T09:21:22Z</time>
      </trkpt>
      <trkpt lat="43.44827" lon="6.60376">
        <ele>370.24</ele>
        <time>2013-10-07T09:21:33Z</time>
      </trkpt>
      <trkpt lat="43.44826" lon="6.60378">
        <ele>370.24</ele>
        <time>2013-10-07T09:21:45Z</time>
      </trkpt>
      <trkpt lat="43.44825" lon="6.60379">
        <ele>370.24</ele>
        <time>2013-10-07T09:22:00Z</time>
      </trkpt>
      <trkpt lat="43.44826" lon="6.6038">
        <ele>370.24</ele>
        <time>2013-10-07T09:22:13Z</time>
      </trkpt>
      <trkpt lat="43.44826" lon="6.6038">
        <ele>370.73</ele>
        <time>2013-10-07T09:22:26Z</time>
      </trkpt>
      <trkpt lat="43.44824" lon="6.60378">
        <ele>370.24</ele>
        <time>2013-10-07T09:22:46Z</time>
      </trkpt>
      <trkpt lat="43.44825" lon="6.60377">
        <ele>369.28</ele>
        <time>2013-10-07T09:23:13Z</time>
      </trkpt>
      <trkpt lat="43.44826" lon="6.60376">
        <ele>370.73</ele>
        <time>2013-10-07T09:23:42Z</time>
      </trkpt>
      <trkpt lat="43.44827" lon="6.60379">
        <ele>369.76</ele>
        <time>2013-10-07T09:24:01Z</time>
      </trkpt>
      <trkpt lat="43.44826" lon="6.60378">
        <ele>369.76</ele>
        <time>2013-10-07T09:24:14Z</time>
      </trkpt>
      <trkpt lat="43.44824" lon="6.60378">
        <ele>370.24</ele>
        <time>2013-10-07T09:24:29Z</time>
      </trkpt>
      <trkpt lat="43.44823" lon="6.60376">
        <ele>370.24</ele>
        <time>2013-10-07T09:24:54Z</time>
      </trkpt>
      <trkpt lat="43.44825" lon="6.60378">
        <ele>369.76</ele>
        <time>2013-10-07T09:25:18Z</time>
      </trkpt>
      <trkpt lat="43.44828" lon="6.60379">
        <ele>369.28</ele>
        <time>2013-10-07T09:25:32Z</time>
      </trkpt>
      <trkpt lat="43.44828" lon="6.6038">
        <ele>368.8</ele>
        <time>2013-10-07T09:25:53Z</time>
      </trkpt>
      <trkpt lat="43.44831" lon="6.60381">
        <ele>367.84</ele>
        <time>2013-10-07T09:26:17Z</time>
      </trkpt>
      <trkpt lat="43.44835" lon="6.60383">
        <ele>367.84</ele>
        <time>2013-10-07T09:26:30Z</time>
      </trkpt>
      <trkpt lat="43.44837" lon="6.60383">
        <ele>367.84</ele>
        <time>2013-10-07T09:26:47Z</time>
      </trkpt>
      <trkpt lat="43.44832" lon="6.60383">
        <ele>367.84</ele>
        <time>2013-10-07T09:27:08Z</time>
      </trkpt>
      <trkpt lat="43.4483" lon="6.60384">
        <ele>367.84</ele>
        <time>2013-10-07T09:27:30Z</time>
      </trkpt>
      <trkpt lat="43.44831" lon="6.60382">
        <ele>367.84</ele>
        <time>2013-10-07T09:27:54Z</time>
      </trkpt>
      <trkpt lat="43.44832" lon="6.6038">
        <ele>368.32</ele>
        <time>2013-10-07T09:28:31Z</time>
      </trkpt>
      <trkpt lat="43.44831" lon="6.60381">
        <ele>368.8</ele>
        <time>2013-10-07T09:28:59Z</time>
      </trkpt>
      <trkpt lat="43.4484" lon="6.60384">
        <ele>367.84</ele>
        <time>2013-10-07T09:29:16Z</time>
      </trkpt>
      <trkpt lat="43.44849" lon="6.60384">
        <ele>366.4</ele>
        <time>2013-10-07T09:29:28Z</time>
      </trkpt>
      <trkpt lat="43.4485" lon="6.60383">
        <ele>363.04</ele>
        <time>2013-10-07T09:29:46Z</time>
      </trkpt>
      <trkpt lat="43.4484" lon="6.60381">
        <ele>361.11</ele>
        <time>2013-10-07T09:30:02Z</time>
      </trkpt>
      <trkpt lat="43.4484" lon="6.60383">
        <ele>361.59</ele>
        <time>2013-10-07T09:30:16Z</time>
      </trkpt>
      <trkpt lat="43.44835" lon="6.60379">
        <ele>360.63</ele>
        <time>2013-10-07T09:30:32Z</time>
      </trkpt>
      <trkpt lat="43.44837" lon="6.60379">
        <ele>360.63</ele>
        <time>2013-10-07T09:30:52Z</time>
      </trkpt>
      <trkpt lat="43.44838" lon="6.60384">
        <ele>361.59</ele>
        <time>2013-10-07T09:31:05Z</time>
      </trkpt>
      <trkpt lat="43.44837" lon="6.60383">
        <ele>361.59</ele>
        <time>2013-10-07T09:31:43Z</time>
      </trkpt>
      <trkpt lat="43.44844" lon="6.6038">
        <ele>361.11</ele>
        <time>2013-10-07T09:31:56Z</time>
      </trkpt>
      <trkpt lat="43.44845" lon="6.60378">
        <ele>360.63</ele>
        <time>2013-10-07T09:32:01Z</time>
      </trkpt>
      <trkpt lat="43.44853" lon="6.60379">
        <ele>362.07</ele>
        <time>2013-10-07T09:32:16Z</time>
      </trkpt>
      <trkpt lat="43.44854" lon="6.60379">
        <ele>365.44</ele>
        <time>2013-10-07T09:32:29Z</time>
      </trkpt>
      <trkpt lat="43.44857" lon="6.6038">
        <ele>365.92</ele>
        <time>2013-10-07T09:32:42Z</time>
      </trkpt>
      <trkpt lat="43.44859" lon="6.60385">
        <ele>367.84</ele>
        <time>2013-10-07T09:32:55Z</time>
      </trkpt>
      <trkpt lat="43.44859" lon="6.6039">
        <ele>370.24</ele>
        <time>2013-10-07T09:33:13Z</time>
      </trkpt>
      <trkpt lat="43.44859" lon="6.6039">
        <ele>372.17</ele>
        <time>2013-10-07T09:33:26Z</time>
      </trkpt>
      <trkpt lat="43.44861" lon="6.60386">
        <ele>372.17</ele>
        <time>2013-10-07T09:33:48Z</time>
      </trkpt>
      <trkpt lat="43.44861" lon="6.60393">
        <ele>372.17</ele>
        <time>2013-10-07T09:34:10Z</time>
      </trkpt>
      <trkpt lat="43.44865" lon="6.60388">
        <ele>372.17</ele>
        <time>2013-10-07T09:34:41Z</time>
      </trkpt>
      <trkpt lat="43.44866" lon="6.60389">
        <ele>372.17</ele>
        <time>2013-10-07T09:34:58Z</time>
      </trkpt>
      <trkpt lat="43.44863" lon="6.60393">
        <ele>371.21</ele>
        <time>2013-10-07T09:35:18Z</time>
      </trkpt>
      <trkpt lat="43.44863" lon="6.60393">
        <ele>371.69</ele>
        <time>2013-10-07T09:35:26Z</time>
      </trkpt>
      <trkpt lat="43.44866" lon="6.60396">
        <ele>372.65</ele>
        <time>2013-10-07T09:35:38Z</time>
      </trkpt>
      <trkpt lat="43.44866" lon="6.60396">
        <ele>374.57</ele>
        <time>2013-10-07T09:35:50Z</time>
      </trkpt>
      <trkpt lat="43.44865" lon="6.604">
        <ele>375.05</ele>
        <time>2013-10-07T09:36:01Z</time>
      </trkpt>
      <trkpt lat="43.44865" lon="6.60397">
        <ele>374.57</ele>
        <time>2013-10-07T09:36:27Z</time>
      </trkpt>
      <trkpt lat="43.44867" lon="6.60401">
        <ele>375.53</ele>
        <time>2013-10-07T09:36:50Z</time>
      </trkpt>
      <trkpt lat="43.44869" lon="6.604">
        <ele>374.09</ele>
        <time>2013-10-07T09:37:00Z</time>
      </trkpt>
      <trkpt lat="43.4487" lon="6.60403">
        <ele>373.61</ele>
        <time>2013-10-07T09:37:14Z</time>
      </trkpt>
      <trkpt lat="43.44872" lon="6.60402">
        <ele>373.61</ele>
        <time>2013-10-07T09:37:25Z</time>
      </trkpt>
      <trkpt lat="43.44874" lon="6.60403">
        <ele>372.17</ele>
        <time>2013-10-07T09:37:34Z</time>
      </trkpt>
      <trkpt lat="43.44876" lon="6.60399">
        <ele>369.76</ele>
        <time>2013-10-07T09:37:47Z</time>
      </trkpt>
      <trkpt lat="43.44877" lon="6.604">
        <ele>368.8</ele>
        <time>2013-10-07T09:38:02Z</time>
      </trkpt>
      <trkpt lat="43.4488" lon="6.60398">
        <ele>366.88</ele>
        <time>2013-10-07T09:38:13Z</time>
      </trkpt>
      <trkpt lat="43.44881" lon="6.60396">
        <ele>368.32</ele>
        <time>2013-10-07T09:38:23Z</time>
      </trkpt>
      <trkpt lat="43.44886" lon="6.60394">
        <ele>369.28</ele>
        <time>2013-10-07T09:38:32Z</time>
      </trkpt>
      <trkpt lat="43.44887" lon="6.60396">
        <ele>371.69</ele>
        <time>2013-10-07T09:38:39Z</time>
      </trkpt>
      <trkpt lat="43.44891" lon="6.60397">
        <ele>370.73</ele>
        <time>2013-10-07T09:38:51Z</time>
      </trkpt>
      <trkpt lat="43.44892" lon="6.60398">
        <ele>370.73</ele>
        <time>2013-10-07T09:38:52Z</time>
      </trkpt>
      <trkpt lat="43.44898" lon="6.60393">
        <ele>370.73</ele>
        <time>2013-10-07T09:39:06Z</time>
      </trkpt>
      <trkpt lat="43.449" lon="6.60394">
        <ele>372.65</ele>
        <time>2013-10-07T09:39:19Z</time>
      </trkpt>
      <trkpt lat="43.44905" lon="6.60398">
        <ele>373.61</ele>
        <time>2013-10-07T09:39:31Z</time>
      </trkpt>
      <trkpt lat="43.44911" lon="6.60395">
        <ele>372.17</ele>
        <time>2013-10-07T09:39:43Z</time>
      </trkpt>
      <trkpt lat="43.44912" lon="6.60394">
        <ele>372.17</ele>
        <time>2013-10-07T09:39:57Z</time>
      </trkpt>
      <trkpt lat="43.44916" lon="6.60394">
        <ele>371.21</ele>
        <time>2013-10-07T09:40:30Z</time>
      </trkpt>
      <trkpt lat="43.44921" lon="6.60397">
        <ele>372.17</ele>
        <time>2013-10-07T09:40:46Z</time>
      </trkpt>
      <trkpt lat="43.44918" lon="6.60397">
        <ele>373.13</ele>
        <time>2013-10-07T09:41:07Z</time>
      </trkpt>
      <trkpt lat="43.44918" lon="6.60399">
        <ele>372.17</ele>
        <time>2013-10-07T09:41:31Z</time>
      </trkpt>
      <trkpt lat="43.44918" lon="6.60397">
        <ele>372.65</ele>
        <time>2013-10-07T09:42:04Z</time>
      </trkpt>
      <trkpt lat="43.44918" lon="6.60397">
        <ele>372.17</ele>
        <time>2013-10-07T09:42:28Z</time>
      </trkpt>
      <trkpt lat="43.4492" lon="6.60398">
        <ele>372.17</ele>
        <time>2013-10-07T09:42:51Z</time>
      </trkpt>
      <trkpt lat="43.44923" lon="6.60392">
        <ele>375.05</ele>
        <time>2013-10-07T09:43:06Z</time>
      </trkpt>
      <trkpt lat="43.44925" lon="6.6039">
        <ele>376.49</ele>
        <time>2013-10-07T09:43:17Z</time>
      </trkpt>
      <trkpt lat="43.44927" lon="6.60389">
        <ele>376.97</ele>
        <time>2013-10-07T09:43:28Z</time>
      </trkpt>
      <trkpt lat="43.44931" lon="6.60389">
        <ele>378.9</ele>
        <time>2013-10-07T09:43:43Z</time>
      </trkpt>
      <trkpt lat="43.44933" lon="6.60391">
        <ele>378.9</ele>
        <time>2013-10-07T09:44:00Z</time>
      </trkpt>
      <trkpt lat="43.44935" lon="6.60394">
        <ele>378.42</ele>
        <time>2013-10-07T09:44:13Z</time>
      </trkpt>
      <trkpt lat="43.44932" lon="6.60391">
        <ele>378.9</ele>
        <time>2013-10-07T09:44:31Z</time>
      </trkpt>
      <trkpt lat="43.44932" lon="6.60388">
        <ele>378.9</ele>
        <time>2013-10-07T09:44:47Z</time>
      </trkpt>
      <trkpt lat="43.44935" lon="6.60393">
        <ele>378.42</ele>
        <time>2013-10-07T09:45:05Z</time>
      </trkpt>
      <trkpt lat="43.44936" lon="6.60395">
        <ele>378.42</ele>
        <time>2013-10-07T09:45:08Z</time>
      </trkpt>
      <trkpt lat="43.44939" lon="6.60392">
        <ele>377.94</ele>
        <time>2013-10-07T09:45:23Z</time>
      </trkpt>
      <trkpt lat="43.44938" lon="6.60391">
        <ele>377.94</ele>
        <time>2013-10-07T09:45:39Z</time>
      </trkpt>
      <trkpt lat="43.44934" lon="6.60391">
        <ele>378.42</ele>
        <time>2013-10-07T09:46:03Z</time>
      </trkpt>
      <trkpt lat="43.44929" lon="6.60388">
        <ele>378.9</ele>
        <time>2013-10-07T09:46:11Z</time>
      </trkpt>
      <trkpt lat="43.44928" lon="6.60389">
        <ele>377.45</ele>
        <time>2013-10-07T09:46:21Z</time>
      </trkpt>
      <trkpt lat="43.44929" lon="6.60385">
        <ele>376.49</ele>
        <time>2013-10-07T09:46:30Z</time>
      </trkpt>
      <trkpt lat="43.4493" lon="6.60384">
        <ele>375.05</ele>
        <time>2013-10-07T09:46:39Z</time>
      </trkpt>
      <trkpt lat="43.44932" lon="6.60386">
        <ele>375.53</ele>
        <time>2013-10-07T09:47:00Z</time>
      </trkpt>
      <trkpt lat="43.44933" lon="6.60386">
        <ele>375.05</ele>
        <time>2013-10-07T09:47:29Z</time>
      </trkpt>
      <trkpt lat="43.44937" lon="6.60383">
        <ele>375.05</ele>
        <time>2013-10-07T09:47:54Z</time>
      </trkpt>
      <trkpt lat="43.44937" lon="6.60385">
        <ele>375.05</ele>
        <time>2013-10-07T09:48:18Z</time>
      </trkpt>
      <trkpt lat="43.44934" lon="6.60386">
        <ele>375.05</ele>
        <time>2013-10-07T09:48:48Z</time>
      </trkpt>
      <trkpt lat="43.44939" lon="6.6039">
        <ele>373.61</ele>
        <time>2013-10-07T09:49:04Z</time>
      </trkpt>
      <trkpt lat="43.44941" lon="6.60392">
        <ele>371.69</ele>
        <time>2013-10-07T09:49:18Z</time>
      </trkpt>
      <trkpt lat="43.44945" lon="6.60391">
        <ele>372.65</ele>
        <time>2013-10-07T09:49:29Z</time>
      </trkpt>
      <trkpt lat="43.44944" lon="6.60385">
        <ele>372.17</ele>
        <time>2013-10-07T09:49:41Z</time>
      </trkpt>
      <trkpt lat="43.44944" lon="6.60386">
        <ele>372.17</ele>
        <time>2013-10-07T09:49:56Z</time>
      </trkpt>
      <trkpt lat="43.44944" lon="6.60389">
        <ele>372.17</ele>
        <time>2013-10-07T09:50:00Z</time>
      </trkpt>
      <trkpt lat="43.44946" lon="6.60392">
        <ele>373.13</ele>
        <time>2013-10-07T09:50:04Z</time>
      </trkpt>
      <trkpt lat="43.44949" lon="6.60393">
        <ele>375.05</ele>
        <time>2013-10-07T09:50:17Z</time>
      </trkpt>
      <trkpt lat="43.44952" lon="6.60394">
        <ele>375.05</ele>
        <time>2013-10-07T09:50:29Z</time>
      </trkpt>
      <trkpt lat="43.44952" lon="6.60393">
        <ele>374.57</ele>
        <time>2013-10-07T09:50:43Z</time>
      </trkpt>
      <trkpt lat="43.44951" lon="6.60392">
        <ele>374.57</ele>
        <time>2013-10-07T09:51:20Z</time>
      </trkpt>
      <trkpt lat="43.44948" lon="6.60391">
        <ele>373.61</ele>
        <time>2013-10-07T09:51:37Z</time>
      </trkpt>
      <trkpt lat="43.44949" lon="6.60389">
        <ele>376.49</ele>
        <time>2013-10-07T09:52:00Z</time>
      </trkpt>
      <trkpt lat="43.44949" lon="6.6039">
        <ele>374.57</ele>
        <time>2013-10-07T09:52:30Z</time>
      </trkpt>
      <trkpt lat="43.44948" lon="6.6039">
        <ele>374.09</ele>
        <time>2013-10-07T09:53:08Z</time>
      </trkpt>
      <trkpt lat="43.44948" lon="6.6039">
        <ele>374.09</ele>
        <time>2013-10-07T09:53:35Z</time>
      </trkpt>
      <trkpt lat="43.44949" lon="6.60392">
        <ele>375.05</ele>
        <time>2013-10-07T09:54:08Z</time>
      </trkpt>
      <trkpt lat="43.44949" lon="6.60392">
        <ele>374.57</ele>
        <time>2013-10-07T09:54:38Z</time>
      </trkpt>
      <trkpt lat="43.44951" lon="6.60393">
        <ele>374.57</ele>
        <time>2013-10-07T09:55:10Z</time>
      </trkpt>
      <trkpt lat="43.44955" lon="6.60391">
        <ele>374.57</ele>
        <time>2013-10-07T09:55:43Z</time>
      </trkpt>
      <trkpt lat="43.44952" lon="6.6039">
        <ele>374.57</ele>
        <time>2013-10-07T09:56:14Z</time>
      </trkpt>
      <trkpt lat="43.44952" lon="6.60392">
        <ele>375.53</ele>
        <time>2013-10-07T09:56:47Z</time>
      </trkpt>
      <trkpt lat="43.44952" lon="6.60391">
        <ele>374.09</ele>
        <time>2013-10-07T09:57:38Z</time>
      </trkpt>
      <trkpt lat="43.44953" lon="6.60391">
        <ele>375.05</ele>
        <time>2013-10-07T09:58:13Z</time>
      </trkpt>
      <trkpt lat="43.44949" lon="6.60391">
        <ele>375.05</ele>
        <time>2013-10-07T09:58:45Z</time>
      </trkpt>
      <trkpt lat="43.44943" lon="6.60391">
        <ele>374.09</ele>
        <time>2013-10-07T09:58:57Z</time>
      </trkpt>
      <trkpt lat="43.44943" lon="6.60387">
        <ele>372.65</ele>
        <time>2013-10-07T09:59:07Z</time>
      </trkpt>
      <trkpt lat="43.44941" lon="6.60385">
        <ele>371.21</ele>
        <time>2013-10-07T09:59:14Z</time>
      </trkpt>
      <trkpt lat="43.44943" lon="6.60382">
        <ele>370.73</ele>
        <time>2013-10-07T09:59:26Z</time>
      </trkpt>
      <trkpt lat="43.44943" lon="6.6038">
        <ele>369.76</ele>
        <time>2013-10-07T09:59:39Z</time>
      </trkpt>
      <trkpt lat="43.44939" lon="6.6038">
        <ele>370.24</ele>
        <time>2013-10-07T09:59:51Z</time>
      </trkpt>
      <trkpt lat="43.44939" lon="6.60375">
        <ele>367.36</ele>
        <time>2013-10-07T10:00:02Z</time>
      </trkpt>
      <trkpt lat="43.4494" lon="6.60372">
        <ele>365.92</ele>
        <time>2013-10-07T10:00:17Z</time>
      </trkpt>
      <trkpt lat="43.44938" lon="6.6037">
        <ele>364.48</ele>
        <time>2013-10-07T10:00:30Z</time>
      </trkpt>
      <trkpt lat="43.44936" lon="6.60371">
        <ele>364.48</ele>
        <time>2013-10-07T10:00:47Z</time>
      </trkpt>
      <trkpt lat="43.44937" lon="6.60373">
        <ele>364.48</ele>
        <time>2013-10-07T10:01:08Z</time>
      </trkpt>
      <trkpt lat="43.4494" lon="6.60376">
        <ele>364.48</ele>
        <time>2013-10-07T10:01:25Z</time>
      </trkpt>
      <trkpt lat="43.44938" lon="6.60377">
        <ele>364.96</ele>
        <time>2013-10-07T10:01:45Z</time>
      </trkpt>
      <trkpt lat="43.44939" lon="6.60376">
        <ele>365.44</ele>
        <time>2013-10-07T10:02:00Z</time>
      </trkpt>
      <trkpt lat="43.44938" lon="6.60374">
        <ele>364.48</ele>
        <time>2013-10-07T10:02:27Z</time>
      </trkpt>
      <trkpt lat="43.44936" lon="6.60373">
        <ele>363.04</ele>
        <time>2013-10-07T10:02:37Z</time>
      </trkpt>
      <trkpt lat="43.44934" lon="6.60375">
        <ele>361.59</ele>
        <time>2013-10-07T10:02:45Z</time>
      </trkpt>
      <trkpt lat="43.44934" lon="6.60373">
        <ele>360.63</ele>
        <time>2013-10-07T10:02:56Z</time>
      </trkpt>
      <trkpt lat="43.44934" lon="6.60369">
        <ele>357.75</ele>
        <time>2013-10-07T10:03:08Z</time>
      </trkpt>
      <trkpt lat="43.44934" lon="6.60365">
        <ele>356.79</ele>
        <time>2013-10-07T10:03:22Z</time>
      </trkpt>
      <trkpt lat="43.44938" lon="6.60366">
        <ele>355.83</ele>
        <time>2013-10-07T10:03:33Z</time>
      </trkpt>
      <trkpt lat="43.44943" lon="6.60368">
        <ele>355.83</ele>
        <time>2013-10-07T10:03:56Z</time>
      </trkpt>
      <trkpt lat="43.44941" lon="6.60367">
        <ele>354.38</ele>
        <time>2013-10-07T10:04:24Z</time>
      </trkpt>
      <trkpt lat="43.44943" lon="6.60366">
        <ele>351.5</ele>
        <time>2013-10-07T10:04:38Z</time>
      </trkpt>
      <trkpt lat="43.44945" lon="6.60366">
        <ele>349.1</ele>
        <time>2013-10-07T10:04:50Z</time>
      </trkpt>
      <trkpt lat="43.44944" lon="6.60361">
        <ele>347.17</ele>
        <time>2013-10-07T10:05:06Z</time>
      </trkpt>
      <trkpt lat="43.44942" lon="6.60359">
        <ele>346.21</ele>
        <time>2013-10-07T10:05:11Z</time>
      </trkpt>
      <trkpt lat="43.44939" lon="6.60351">
        <ele>343.81</ele>
        <time>2013-10-07T10:05:26Z</time>
      </trkpt>
      <trkpt lat="43.44935" lon="6.6035">
        <ele>341.89</ele>
        <time>2013-10-07T10:05:40Z</time>
      </trkpt>
      <trkpt lat="43.44938" lon="6.60346">
        <ele>339</ele>
        <time>2013-10-07T10:05:53Z</time>
      </trkpt>
      <trkpt lat="43.44936" lon="6.60344">
        <ele>338.04</ele>
        <time>2013-10-07T10:06:03Z</time>
      </trkpt>
      <trkpt lat="43.44937" lon="6.60341">
        <ele>336.12</ele>
        <time>2013-10-07T10:06:11Z</time>
      </trkpt>
      <trkpt lat="43.44938" lon="6.60343">
        <ele>336.12</ele>
        <time>2013-10-07T10:06:25Z</time>
      </trkpt>
      <trkpt lat="43.4494" lon="6.60349">
        <ele>335.64</ele>
        <time>2013-10-07T10:06:47Z</time>
      </trkpt>
      <trkpt lat="43.44944" lon="6.60338">
        <ele>337.08</ele>
        <time>2013-10-07T10:06:58Z</time>
      </trkpt>
      <trkpt lat="43.44951" lon="6.60332">
        <ele>337.08</ele>
        <time>2013-10-07T10:07:11Z</time>
      </trkpt>
      <trkpt lat="43.44951" lon="6.60332">
        <ele>337.56</ele>
        <time>2013-10-07T10:07:19Z</time>
      </trkpt>
      <trkpt lat="43.44955" lon="6.60328">
        <ele>338.04</ele>
        <time>2013-10-07T10:07:31Z</time>
      </trkpt>
      <trkpt lat="43.44957" lon="6.60328">
        <ele>338.04</ele>
        <time>2013-10-07T10:07:35Z</time>
      </trkpt>
      <trkpt lat="43.44957" lon="6.60327">
        <ele>337.56</ele>
        <time>2013-10-07T10:07:49Z</time>
      </trkpt>
      <trkpt lat="43.44958" lon="6.60328">
        <ele>338.04</ele>
        <time>2013-10-07T10:08:11Z</time>
      </trkpt>
      <trkpt lat="43.44959" lon="6.60329">
        <ele>338.04</ele>
        <time>2013-10-07T10:08:29Z</time>
      </trkpt>
      <trkpt lat="43.44958" lon="6.60326">
        <ele>338.04</ele>
        <time>2013-10-07T10:08:55Z</time>
      </trkpt>
      <trkpt lat="43.4496" lon="6.60323">
        <ele>337.56</ele>
        <time>2013-10-07T10:09:10Z</time>
      </trkpt>
      <trkpt lat="43.4497" lon="6.60319">
        <ele>338.52</ele>
        <time>2013-10-07T10:09:22Z</time>
      </trkpt>
      <trkpt lat="43.44975" lon="6.60323">
        <ele>340.44</ele>
        <time>2013-10-07T10:09:34Z</time>
      </trkpt>
      <trkpt lat="43.44974" lon="6.60317">
        <ele>340.92</ele>
        <time>2013-10-07T10:09:40Z</time>
      </trkpt>
      <trkpt lat="43.44977" lon="6.60309">
        <ele>342.37</ele>
        <time>2013-10-07T10:09:50Z</time>
      </trkpt>
      <trkpt lat="43.44983" lon="6.60303">
        <ele>343.81</ele>
        <time>2013-10-07T10:10:01Z</time>
      </trkpt>
      <trkpt lat="43.44984" lon="6.60298">
        <ele>344.77</ele>
        <time>2013-10-07T10:10:15Z</time>
      </trkpt>
      <trkpt lat="43.44986" lon="6.60293">
        <ele>343.33</ele>
        <time>2013-10-07T10:10:42Z</time>
      </trkpt>
      <trkpt lat="43.44992" lon="6.60287">
        <ele>342.85</ele>
        <time>2013-10-07T10:10:54Z</time>
      </trkpt>
      <trkpt lat="43.44998" lon="6.60289">
        <ele>343.33</ele>
        <time>2013-10-07T10:11:08Z</time>
      </trkpt>
      <trkpt lat="43.45001" lon="6.60293">
        <ele>344.77</ele>
        <time>2013-10-07T10:11:22Z</time>
      </trkpt>
      <trkpt lat="43.45006" lon="6.60297">
        <ele>347.17</ele>
        <time>2013-10-07T10:11:37Z</time>
      </trkpt>
      <trkpt lat="43.45007" lon="6.60298">
        <ele>347.17</ele>
        <time>2013-10-07T10:11:53Z</time>
      </trkpt>
      <trkpt lat="43.4501" lon="6.60294">
        <ele>348.13</ele>
        <time>2013-10-07T10:12:10Z</time>
      </trkpt>
      <trkpt lat="43.4501" lon="6.60295">
        <ele>348.13</ele>
        <time>2013-10-07T10:12:11Z</time>
      </trkpt>
      <trkpt lat="43.45012" lon="6.60295">
        <ele>348.13</ele>
        <time>2013-10-07T10:12:14Z</time>
      </trkpt>
      <trkpt lat="43.45014" lon="6.60292">
        <ele>351.02</ele>
        <time>2013-10-07T10:12:25Z</time>
      </trkpt>
      <trkpt lat="43.45013" lon="6.60293">
        <ele>351.5</ele>
        <time>2013-10-07T10:12:26Z</time>
      </trkpt>
      <trkpt lat="43.45012" lon="6.603">
        <ele>351.98</ele>
        <time>2013-10-07T10:12:38Z</time>
      </trkpt>
      <trkpt lat="43.45016" lon="6.60306">
        <ele>352.94</ele>
        <time>2013-10-07T10:12:54Z</time>
      </trkpt>
      <trkpt lat="43.4502" lon="6.60306">
        <ele>356.31</ele>
        <time>2013-10-07T10:13:05Z</time>
      </trkpt>
      <trkpt lat="43.45025" lon="6.60306">
        <ele>358.23</ele>
        <time>2013-10-07T10:13:21Z</time>
      </trkpt>
      <trkpt lat="43.45026" lon="6.60313">
        <ele>360.15</ele>
        <time>2013-10-07T10:13:33Z</time>
      </trkpt>
      <trkpt lat="43.4503" lon="6.60304">
        <ele>360.63</ele>
        <time>2013-10-07T10:13:45Z</time>
      </trkpt>
      <trkpt lat="43.45034" lon="6.60304">
        <ele>359.67</ele>
        <time>2013-10-07T10:13:56Z</time>
      </trkpt>
      <trkpt lat="43.45037" lon="6.60301">
        <ele>359.19</ele>
        <time>2013-10-07T10:14:12Z</time>
      </trkpt>
      <trkpt lat="43.45038" lon="6.60299">
        <ele>358.71</ele>
        <time>2013-10-07T10:14:22Z</time>
      </trkpt>
      <trkpt lat="43.45043" lon="6.60297">
        <ele>358.23</ele>
        <time>2013-10-07T10:14:30Z</time>
      </trkpt>
      <trkpt lat="43.45046" lon="6.60295">
        <ele>359.19</ele>
        <time>2013-10-07T10:14:35Z</time>
      </trkpt>
      <trkpt lat="43.45051" lon="6.6029">
        <ele>361.59</ele>
        <time>2013-10-07T10:14:48Z</time>
      </trkpt>
      <trkpt lat="43.45051" lon="6.60287">
        <ele>361.59</ele>
        <time>2013-10-07T10:14:52Z</time>
      </trkpt>
      <trkpt lat="43.45054" lon="6.60282">
        <ele>361.11</ele>
        <time>2013-10-07T10:15:04Z</time>
      </trkpt>
      <trkpt lat="43.4506" lon="6.60283">
        <ele>360.15</ele>
        <time>2013-10-07T10:15:18Z</time>
      </trkpt>
      <trkpt lat="43.45063" lon="6.60281">
        <ele>359.67</ele>
        <time>2013-10-07T10:15:31Z</time>
      </trkpt>
      <trkpt lat="43.4507" lon="6.60282">
        <ele>358.71</ele>
        <time>2013-10-07T10:15:46Z</time>
      </trkpt>
      <trkpt lat="43.45074" lon="6.60282">
        <ele>357.27</ele>
        <time>2013-10-07T10:16:01Z</time>
      </trkpt>
      <trkpt lat="43.45076" lon="6.60277">
        <ele>353.9</ele>
        <time>2013-10-07T10:16:13Z</time>
      </trkpt>
      <trkpt lat="43.45072" lon="6.60276">
        <ele>351.98</ele>
        <time>2013-10-07T10:16:25Z</time>
      </trkpt>
      <trkpt lat="43.45067" lon="6.6027">
        <ele>350.54</ele>
        <time>2013-10-07T10:16:39Z</time>
      </trkpt>
      <trkpt lat="43.45066" lon="6.60268">
        <ele>350.06</ele>
        <time>2013-10-07T10:16:57Z</time>
      </trkpt>
      <trkpt lat="43.45065" lon="6.60267">
        <ele>349.58</ele>
        <time>2013-10-07T10:17:12Z</time>
      </trkpt>
      <trkpt lat="43.45061" lon="6.60258">
        <ele>347.65</ele>
        <time>2013-10-07T10:17:24Z</time>
      </trkpt>
      <trkpt lat="43.45061" lon="6.60258">
        <ele>347.17</ele>
        <time>2013-10-07T10:17:25Z</time>
      </trkpt>
      <trkpt lat="43.45061" lon="6.60251">
        <ele>345.25</ele>
        <time>2013-10-07T10:17:38Z</time>
      </trkpt>
      <trkpt lat="43.45058" lon="6.60244">
        <ele>343.33</ele>
        <time>2013-10-07T10:17:50Z</time>
      </trkpt>
      <trkpt lat="43.45058" lon="6.60238">
        <ele>340.92</ele>
        <time>2013-10-07T10:18:01Z</time>
      </trkpt>
      <trkpt lat="43.45055" lon="6.60231">
        <ele>339.48</ele>
        <time>2013-10-07T10:18:12Z</time>
      </trkpt>
      <trkpt lat="43.45056" lon="6.60225">
        <ele>337.56</ele>
        <time>2013-10-07T10:18:23Z</time>
      </trkpt>
      <trkpt lat="43.45056" lon="6.60222">
        <ele>336.6</ele>
        <time>2013-10-07T10:18:36Z</time>
      </trkpt>
      <trkpt lat="43.45058" lon="6.6021">
        <ele>333.71</ele>
        <time>2013-10-07T10:18:50Z</time>
      </trkpt>
      <trkpt lat="43.45056" lon="6.60198">
        <ele>331.31</ele>
        <time>2013-10-07T10:19:01Z</time>
      </trkpt>
      <trkpt lat="43.45055" lon="6.60197">
        <ele>331.79</ele>
        <time>2013-10-07T10:19:20Z</time>
      </trkpt>
      <trkpt lat="43.45053" lon="6.60197">
        <ele>330.83</ele>
        <time>2013-10-07T10:19:41Z</time>
      </trkpt>
      <trkpt lat="43.45053" lon="6.60193">
        <ele>330.83</ele>
        <time>2013-10-07T10:19:44Z</time>
      </trkpt>
      <trkpt lat="43.45056" lon="6.60187">
        <ele>330.35</ele>
        <time>2013-10-07T10:19:49Z</time>
      </trkpt>
      <trkpt lat="43.45049" lon="6.60173">
        <ele>329.87</ele>
        <time>2013-10-07T10:20:00Z</time>
      </trkpt>
      <trkpt lat="43.45049" lon="6.60169">
        <ele>329.87</ele>
        <time>2013-10-07T10:20:03Z</time>
      </trkpt>
      <trkpt lat="43.45051" lon="6.60165">
        <ele>329.39</ele>
        <time>2013-10-07T10:20:06Z</time>
      </trkpt>
      <trkpt lat="43.4505" lon="6.60161">
        <ele>326.02</ele>
        <time>2013-10-07T10:20:09Z</time>
      </trkpt>
      <trkpt lat="43.4505" lon="6.60159">
        <ele>330.83</ele>
        <time>2013-10-07T10:20:10Z</time>
      </trkpt>
      <trkpt lat="43.45056" lon="6.6015">
        <ele>326.99</ele>
        <time>2013-10-07T10:20:26Z</time>
      </trkpt>
      <trkpt lat="43.45055" lon="6.60149">
        <ele>328.91</ele>
        <time>2013-10-07T10:20:31Z</time>
      </trkpt>
      <trkpt lat="43.45058" lon="6.6015">
        <ele>328.43</ele>
        <time>2013-10-07T10:20:55Z</time>
      </trkpt>
      <trkpt lat="43.45058" lon="6.60151">
        <ele>328.91</ele>
        <time>2013-10-07T10:21:21Z</time>
      </trkpt>
      <trkpt lat="43.45056" lon="6.60151">
        <ele>328.43</ele>
        <time>2013-10-07T10:21:55Z</time>
      </trkpt>
      <trkpt lat="43.45057" lon="6.60148">
        <ele>327.47</ele>
        <time>2013-10-07T10:22:19Z</time>
      </trkpt>
      <trkpt lat="43.45056" lon="6.60143">
        <ele>325.06</ele>
        <time>2013-10-07T10:22:35Z</time>
      </trkpt>
      <trkpt lat="43.45056" lon="6.60138">
        <ele>324.1</ele>
        <time>2013-10-07T10:22:46Z</time>
      </trkpt>
      <trkpt lat="43.45056" lon="6.60131">
        <ele>322.66</ele>
        <time>2013-10-07T10:22:56Z</time>
      </trkpt>
      <trkpt lat="43.45058" lon="6.60129">
        <ele>321.22</ele>
        <time>2013-10-07T10:23:02Z</time>
      </trkpt>
      <trkpt lat="43.45058" lon="6.60127">
        <ele>319.78</ele>
        <time>2013-10-07T10:23:13Z</time>
      </trkpt>
      <trkpt lat="43.4506" lon="6.60124">
        <ele>317.85</ele>
        <time>2013-10-07T10:23:19Z</time>
      </trkpt>
      <trkpt lat="43.45064" lon="6.6012">
        <ele>316.41</ele>
        <time>2013-10-07T10:23:31Z</time>
      </trkpt>
      <trkpt lat="43.45066" lon="6.60115">
        <ele>315.93</ele>
        <time>2013-10-07T10:23:35Z</time>
      </trkpt>
      <trkpt lat="43.45068" lon="6.60109">
        <ele>314.97</ele>
        <time>2013-10-07T10:23:42Z</time>
      </trkpt>
      <trkpt lat="43.4507" lon="6.60096">
        <ele>314.01</ele>
        <time>2013-10-07T10:23:55Z</time>
      </trkpt>
      <trkpt lat="43.4507" lon="6.60095">
        <ele>314.01</ele>
        <time>2013-10-07T10:39:40Z</time>
      </trkpt>
      <trkpt lat="43.4507" lon="6.60087">
        <ele>313.53</ele>
        <time>2013-10-07T10:39:51Z</time>
      </trkpt>
      <trkpt lat="43.45075" lon="6.60078">
        <ele>314.01</ele>
        <time>2013-10-07T10:40:05Z</time>
      </trkpt>
      <trkpt lat="43.45078" lon="6.60075">
        <ele>313.53</ele>
        <time>2013-10-07T10:40:22Z</time>
      </trkpt>
      <trkpt lat="43.45078" lon="6.60065">
        <ele>314.49</ele>
        <time>2013-10-07T10:40:35Z</time>
      </trkpt>
      <trkpt lat="43.45076" lon="6.60064">
        <ele>312.57</ele>
        <time>2013-10-07T10:40:46Z</time>
      </trkpt>
      <trkpt lat="43.45079" lon="6.60054">
        <ele>312.57</ele>
        <time>2013-10-07T10:41:00Z</time>
      </trkpt>
      <trkpt lat="43.45081" lon="6.60039">
        <ele>315.45</ele>
        <time>2013-10-07T10:41:16Z</time>
      </trkpt>
      <trkpt lat="43.45081" lon="6.60028">
        <ele>316.89</ele>
        <time>2013-10-07T10:41:37Z</time>
      </trkpt>
      <trkpt lat="43.45083" lon="6.60024">
        <ele>318.33</ele>
        <time>2013-10-07T10:41:51Z</time>
      </trkpt>
      <trkpt lat="43.45085" lon="6.60023">
        <ele>320.74</ele>
        <time>2013-10-07T10:42:04Z</time>
      </trkpt>
      <trkpt lat="43.45084" lon="6.60019">
        <ele>322.66</ele>
        <time>2013-10-07T10:42:18Z</time>
      </trkpt>
      <trkpt lat="43.45082" lon="6.60011">
        <ele>324.1</ele>
        <time>2013-10-07T10:42:35Z</time>
      </trkpt>
      <trkpt lat="43.45079" lon="6.60007">
        <ele>325.06</ele>
        <time>2013-10-07T10:42:48Z</time>
      </trkpt>
      <trkpt lat="43.45077" lon="6.60002">
        <ele>325.54</ele>
        <time>2013-10-07T10:43:06Z</time>
      </trkpt>
      <trkpt lat="43.45081" lon="6.6">
        <ele>328.43</ele>
        <time>2013-10-07T10:43:28Z</time>
      </trkpt>
      <trkpt lat="43.45081" lon="6.59995">
        <ele>329.39</ele>
        <time>2013-10-07T10:43:45Z</time>
      </trkpt>
      <trkpt lat="43.45078" lon="6.59994">
        <ele>329.87</ele>
        <time>2013-10-07T10:44:02Z</time>
      </trkpt>
      <trkpt lat="43.45081" lon="6.59992">
        <ele>331.31</ele>
        <time>2013-10-07T10:44:16Z</time>
      </trkpt>
      <trkpt lat="43.45082" lon="6.59996">
        <ele>333.23</ele>
        <time>2013-10-07T10:44:31Z</time>
      </trkpt>
      <trkpt lat="43.45085" lon="6.59992">
        <ele>335.64</ele>
        <time>2013-10-07T10:44:46Z</time>
      </trkpt>
      <trkpt lat="43.45078" lon="6.59989">
        <ele>337.08</ele>
        <time>2013-10-07T10:44:58Z</time>
      </trkpt>
      <trkpt lat="43.45077" lon="6.59985">
        <ele>338.52</ele>
        <time>2013-10-07T10:45:10Z</time>
      </trkpt>
      <trkpt lat="43.45073" lon="6.59984">
        <ele>338.52</ele>
        <time>2013-10-07T10:45:28Z</time>
      </trkpt>
      <trkpt lat="43.45067" lon="6.59987">
        <ele>338.52</ele>
        <time>2013-10-07T10:45:52Z</time>
      </trkpt>
      <trkpt lat="43.45066" lon="6.59989">
        <ele>338.52</ele>
        <time>2013-10-07T10:46:09Z</time>
      </trkpt>
      <trkpt lat="43.45065" lon="6.59988">
        <ele>348.62</ele>
        <time>2013-10-07T10:48:51Z</time>
      </trkpt>
      <trkpt lat="43.45072" lon="6.59972">
        <ele>356.31</ele>
        <time>2013-10-07T10:50:53Z</time>
      </trkpt>
      <trkpt lat="43.45072" lon="6.59968">
        <ele>359.19</ele>
        <time>2013-10-07T10:51:07Z</time>
      </trkpt>
      <trkpt lat="43.45075" lon="6.59966">
        <ele>360.63</ele>
        <time>2013-10-07T10:51:26Z</time>
      </trkpt>
      <trkpt lat="43.45075" lon="6.59957">
        <ele>363.52</ele>
        <time>2013-10-07T10:51:42Z</time>
      </trkpt>
      <trkpt lat="43.45081" lon="6.59945">
        <ele>362.55</ele>
        <time>2013-10-07T10:51:58Z</time>
      </trkpt>
      <trkpt lat="43.45082" lon="6.59943">
        <ele>361.11</ele>
        <time>2013-10-07T11:17:15Z</time>
      </trkpt>
      <trkpt lat="43.45084" lon="6.59937">
        <ele>360.15</ele>
        <time>2013-10-07T11:17:27Z</time>
      </trkpt>
      <trkpt lat="43.45085" lon="6.59934">
        <ele>358.71</ele>
        <time>2013-10-07T11:17:37Z</time>
      </trkpt>
      <trkpt lat="43.45084" lon="6.5993">
        <ele>356.79</ele>
        <time>2013-10-07T11:17:45Z</time>
      </trkpt>
      <trkpt lat="43.45084" lon="6.5993">
        <ele>356.79</ele>
        <time>2013-10-07T11:17:46Z</time>
      </trkpt>
      <trkpt lat="43.45084" lon="6.59927">
        <ele>355.34</ele>
        <time>2013-10-07T11:17:56Z</time>
      </trkpt>
      <trkpt lat="43.45088" lon="6.59923">
        <ele>352.46</ele>
        <time>2013-10-07T11:18:06Z</time>
      </trkpt>
      <trkpt lat="43.45089" lon="6.59923">
        <ele>352.94</ele>
        <time>2013-10-07T11:18:18Z</time>
      </trkpt>
      <trkpt lat="43.45091" lon="6.5992">
        <ele>351.5</ele>
        <time>2013-10-07T11:18:47Z</time>
      </trkpt>
      <trkpt lat="43.45093" lon="6.59901">
        <ele>350.54</ele>
        <time>2013-10-07T11:19:00Z</time>
      </trkpt>
      <trkpt lat="43.45092" lon="6.59899">
        <ele>351.02</ele>
        <time>2013-10-07T11:19:01Z</time>
      </trkpt>
      <trkpt lat="43.45089" lon="6.59893">
        <ele>350.54</ele>
        <time>2013-10-07T11:19:06Z</time>
      </trkpt>
      <trkpt lat="43.45091" lon="6.59884">
        <ele>349.1</ele>
        <time>2013-10-07T11:19:20Z</time>
      </trkpt>
      <trkpt lat="43.45088" lon="6.59872">
        <ele>349.1</ele>
        <time>2013-10-07T11:19:34Z</time>
      </trkpt>
      <trkpt lat="43.45085" lon="6.59858">
        <ele>349.58</ele>
        <time>2013-10-07T11:19:47Z</time>
      </trkpt>
      <trkpt lat="43.45089" lon="6.59845">
        <ele>350.06</ele>
        <time>2013-10-07T11:19:59Z</time>
      </trkpt>
      <trkpt lat="43.45096" lon="6.59834">
        <ele>348.13</ele>
        <time>2013-10-07T11:20:11Z</time>
      </trkpt>
      <trkpt lat="43.45103" lon="6.59839">
        <ele>346.69</ele>
        <time>2013-10-07T11:20:20Z</time>
      </trkpt>
      <trkpt lat="43.45112" lon="6.59832">
        <ele>344.77</ele>
        <time>2013-10-07T11:20:29Z</time>
      </trkpt>
      <trkpt lat="43.45113" lon="6.59828">
        <ele>343.81</ele>
        <time>2013-10-07T11:20:32Z</time>
      </trkpt>
      <trkpt lat="43.45116" lon="6.59821">
        <ele>342.85</ele>
        <time>2013-10-07T11:20:37Z</time>
      </trkpt>
      <trkpt lat="43.45115" lon="6.59814">
        <ele>343.81</ele>
        <time>2013-10-07T11:20:42Z</time>
      </trkpt>
      <trkpt lat="43.45116" lon="6.5981">
        <ele>344.29</ele>
        <time>2013-10-07T11:20:46Z</time>
      </trkpt>
      <trkpt lat="43.45111" lon="6.598">
        <ele>344.77</ele>
        <time>2013-10-07T11:20:54Z</time>
      </trkpt>
      <trkpt lat="43.45104" lon="6.59793">
        <ele>345.25</ele>
        <time>2013-10-07T11:21:03Z</time>
      </trkpt>
      <trkpt lat="43.45098" lon="6.59786">
        <ele>344.29</ele>
        <time>2013-10-07T11:21:16Z</time>
      </trkpt>
      <trkpt lat="43.45098" lon="6.59786">
        <ele>344.77</ele>
        <time>2013-10-07T11:21:20Z</time>
      </trkpt>
      <trkpt lat="43.45096" lon="6.59782">
        <ele>344.77</ele>
        <time>2013-10-07T11:21:24Z</time>
      </trkpt>
      <trkpt lat="43.45087" lon="6.59774">
        <ele>344.29</ele>
        <time>2013-10-07T11:21:35Z</time>
      </trkpt>
      <trkpt lat="43.45077" lon="6.59765">
        <ele>343.33</ele>
        <time>2013-10-07T11:21:49Z</time>
      </trkpt>
      <trkpt lat="43.45078" lon="6.5976">
        <ele>342.85</ele>
        <time>2013-10-07T11:21:54Z</time>
      </trkpt>
      <trkpt lat="43.45082" lon="6.59755">
        <ele>341.41</ele>
        <time>2013-10-07T11:22:00Z</time>
      </trkpt>
      <trkpt lat="43.45089" lon="6.59745">
        <ele>338.52</ele>
        <time>2013-10-07T11:22:14Z</time>
      </trkpt>
      <trkpt lat="43.45088" lon="6.59737">
        <ele>336.12</ele>
        <time>2013-10-07T11:22:24Z</time>
      </trkpt>
      <trkpt lat="43.45093" lon="6.59731">
        <ele>334.68</ele>
        <time>2013-10-07T11:22:37Z</time>
      </trkpt>
      <trkpt lat="43.45091" lon="6.59727">
        <ele>333.23</ele>
        <time>2013-10-07T11:22:53Z</time>
      </trkpt>
      <trkpt lat="43.45087" lon="6.59713">
        <ele>330.83</ele>
        <time>2013-10-07T11:23:09Z</time>
      </trkpt>
      <trkpt lat="43.45089" lon="6.597">
        <ele>327.95</ele>
        <time>2013-10-07T11:23:25Z</time>
      </trkpt>
      <trkpt lat="43.45086" lon="6.59688">
        <ele>326.02</ele>
        <time>2013-10-07T11:23:39Z</time>
      </trkpt>
      <trkpt lat="43.45089" lon="6.59675">
        <ele>324.1</ele>
        <time>2013-10-07T11:23:54Z</time>
      </trkpt>
      <trkpt lat="43.45102" lon="6.59677">
        <ele>324.1</ele>
        <time>2013-10-07T11:24:12Z</time>
      </trkpt>
      <trkpt lat="43.45112" lon="6.59675">
        <ele>322.66</ele>
        <time>2013-10-07T11:24:28Z</time>
      </trkpt>
      <trkpt lat="43.45123" lon="6.59674">
        <ele>321.7</ele>
        <time>2013-10-07T11:24:43Z</time>
      </trkpt>
      <trkpt lat="43.45134" lon="6.59673">
        <ele>321.7</ele>
        <time>2013-10-07T11:24:53Z</time>
      </trkpt>
      <trkpt lat="43.4514" lon="6.59666">
        <ele>321.22</ele>
        <time>2013-10-07T11:25:07Z</time>
      </trkpt>
      <trkpt lat="43.45141" lon="6.5966">
        <ele>318.81</ele>
        <time>2013-10-07T11:25:22Z</time>
      </trkpt>
      <trkpt lat="43.45151" lon="6.59656">
        <ele>316.41</ele>
        <time>2013-10-07T11:25:35Z</time>
      </trkpt>
      <trkpt lat="43.4516" lon="6.59649">
        <ele>314.01</ele>
        <time>2013-10-07T11:25:47Z</time>
      </trkpt>
      <trkpt lat="43.45169" lon="6.59641">
        <ele>311.12</ele>
        <time>2013-10-07T11:26:02Z</time>
      </trkpt>
      <trkpt lat="43.45172" lon="6.59631">
        <ele>308.72</ele>
        <time>2013-10-07T11:26:13Z</time>
      </trkpt>
      <trkpt lat="43.45175" lon="6.5963">
        <ele>307.76</ele>
        <time>2013-10-07T11:26:27Z</time>
      </trkpt>
      <trkpt lat="43.4518" lon="6.59631">
        <ele>307.28</ele>
        <time>2013-10-07T11:26:39Z</time>
      </trkpt>
      <trkpt lat="43.45178" lon="6.59631">
        <ele>306.8</ele>
        <time>2013-10-07T11:26:40Z</time>
      </trkpt>
      <trkpt lat="43.45173" lon="6.59626">
        <ele>306.32</ele>
        <time>2013-10-07T11:26:53Z</time>
      </trkpt>
      <trkpt lat="43.45172" lon="6.59617">
        <ele>304.39</ele>
        <time>2013-10-07T11:27:05Z</time>
      </trkpt>
      <trkpt lat="43.45177" lon="6.59608">
        <ele>301.51</ele>
        <time>2013-10-07T11:27:19Z</time>
      </trkpt>
      <trkpt lat="43.4518" lon="6.59601">
        <ele>298.15</ele>
        <time>2013-10-07T11:27:34Z</time>
      </trkpt>
      <trkpt lat="43.45187" lon="6.59593">
        <ele>294.78</ele>
        <time>2013-10-07T11:27:49Z</time>
      </trkpt>
      <trkpt lat="43.45197" lon="6.59583">
        <ele>291.9</ele>
        <time>2013-10-07T11:28:08Z</time>
      </trkpt>
      <trkpt lat="43.45199" lon="6.59576">
        <ele>289.49</ele>
        <time>2013-10-07T11:28:25Z</time>
      </trkpt>
      <trkpt lat="43.45204" lon="6.59574">
        <ele>286.13</ele>
        <time>2013-10-07T11:28:39Z</time>
      </trkpt>
      <trkpt lat="43.45204" lon="6.59574">
        <ele>286.13</ele>
        <time>2013-10-07T11:28:40Z</time>
      </trkpt>
      <trkpt lat="43.45213" lon="6.59573">
        <ele>283.73</ele>
        <time>2013-10-07T11:28:57Z</time>
      </trkpt>
      <trkpt lat="43.45215" lon="6.59572">
        <ele>280.84</ele>
        <time>2013-10-07T11:29:12Z</time>
      </trkpt>
      <trkpt lat="43.45223" lon="6.59571">
        <ele>277.48</ele>
        <time>2013-10-07T11:29:25Z</time>
      </trkpt>
      <trkpt lat="43.45223" lon="6.59561">
        <ele>274.59</ele>
        <time>2013-10-07T11:29:43Z</time>
      </trkpt>
      <trkpt lat="43.45224" lon="6.59554">
        <ele>272.19</ele>
        <time>2013-10-07T11:29:57Z</time>
      </trkpt>
      <trkpt lat="43.45227" lon="6.59551">
        <ele>270.27</ele>
        <time>2013-10-07T11:30:14Z</time>
      </trkpt>
      <trkpt lat="43.45235" lon="6.59547">
        <ele>267.86</ele>
        <time>2013-10-07T11:30:33Z</time>
      </trkpt>
      <trkpt lat="43.45237" lon="6.59545">
        <ele>265.94</ele>
        <time>2013-10-07T11:30:46Z</time>
      </trkpt>
      <trkpt lat="43.45242" lon="6.5954">
        <ele>262.58</ele>
        <time>2013-10-07T11:31:00Z</time>
      </trkpt>
      <trkpt lat="43.45245" lon="6.5954">
        <ele>261.62</ele>
        <time>2013-10-07T11:31:18Z</time>
      </trkpt>
      <trkpt lat="43.45239" lon="6.59528">
        <ele>259.69</ele>
        <time>2013-10-07T11:31:32Z</time>
      </trkpt>
      <trkpt lat="43.45241" lon="6.59523">
        <ele>257.77</ele>
        <time>2013-10-07T11:31:46Z</time>
      </trkpt>
      <trkpt lat="43.45241" lon="6.59514">
        <ele>255.37</ele>
        <time>2013-10-07T11:32:00Z</time>
      </trkpt>
      <trkpt lat="43.45248" lon="6.59505">
        <ele>252</ele>
        <time>2013-10-07T11:32:17Z</time>
      </trkpt>
      <trkpt lat="43.45256" lon="6.59502">
        <ele>250.08</ele>
        <time>2013-10-07T11:32:32Z</time>
      </trkpt>
      <trkpt lat="43.45261" lon="6.59497">
        <ele>247.68</ele>
        <time>2013-10-07T11:32:44Z</time>
      </trkpt>
      <trkpt lat="43.45268" lon="6.59488">
        <ele>244.31</ele>
        <time>2013-10-07T11:32:59Z</time>
      </trkpt>
      <trkpt lat="43.45282" lon="6.59492">
        <ele>241.91</ele>
        <time>2013-10-07T11:33:16Z</time>
      </trkpt>
      <trkpt lat="43.4529" lon="6.59487">
        <ele>239.02</ele>
        <time>2013-10-07T11:33:31Z</time>
      </trkpt>
      <trkpt lat="43.453" lon="6.59478">
        <ele>235.66</ele>
        <time>2013-10-07T11:33:49Z</time>
      </trkpt>
      <trkpt lat="43.45311" lon="6.59476">
        <ele>233.74</ele>
        <time>2013-10-07T11:34:04Z</time>
      </trkpt>
      <trkpt lat="43.45318" lon="6.59463">
        <ele>230.37</ele>
        <time>2013-10-07T11:34:19Z</time>
      </trkpt>
      <trkpt lat="43.45322" lon="6.59454">
        <ele>230.37</ele>
        <time>2013-10-07T11:34:35Z</time>
      </trkpt>
      <trkpt lat="43.45326" lon="6.59454">
        <ele>229.41</ele>
        <time>2013-10-07T11:34:54Z</time>
      </trkpt>
      <trkpt lat="43.45323" lon="6.59449">
        <ele>229.89</ele>
        <time>2013-10-07T11:35:09Z</time>
      </trkpt>
      <trkpt lat="43.45338" lon="6.59431">
        <ele>228.93</ele>
        <time>2013-10-07T11:35:31Z</time>
      </trkpt>
      <trkpt lat="43.4532" lon="6.59437">
        <ele>229.41</ele>
        <time>2013-10-07T11:35:55Z</time>
      </trkpt>
      <trkpt lat="43.45327" lon="6.59453">
        <ele>229.41</ele>
        <time>2013-10-07T11:36:16Z</time>
      </trkpt>
      <trkpt lat="43.45329" lon="6.59459">
        <ele>228.93</ele>
        <time>2013-10-07T11:36:42Z</time>
      </trkpt>
      <trkpt lat="43.45334" lon="6.59466">
        <ele>226.05</ele>
        <time>2013-10-07T11:36:59Z</time>
      </trkpt>
      <trkpt lat="43.45339" lon="6.59481">
        <ele>223.16</ele>
        <time>2013-10-07T11:37:15Z</time>
      </trkpt>
      <trkpt lat="43.45345" lon="6.59492">
        <ele>221.24</ele>
        <time>2013-10-07T11:37:31Z</time>
      </trkpt>
      <trkpt lat="43.45357" lon="6.59502">
        <ele>218.84</ele>
        <time>2013-10-07T11:37:50Z</time>
      </trkpt>
      <trkpt lat="43.45368" lon="6.59517">
        <ele>216.91</ele>
        <time>2013-10-07T11:38:07Z</time>
      </trkpt>
      <trkpt lat="43.45377" lon="6.5953">
        <ele>213.55</ele>
        <time>2013-10-07T11:38:23Z</time>
      </trkpt>
      <trkpt lat="43.45381" lon="6.59538">
        <ele>212.59</ele>
        <time>2013-10-07T11:38:42Z</time>
      </trkpt>
      <trkpt lat="43.45385" lon="6.59544">
        <ele>209.7</ele>
        <time>2013-10-07T11:38:58Z</time>
      </trkpt>
      <trkpt lat="43.45388" lon="6.59552">
        <ele>208.74</ele>
        <time>2013-10-07T11:39:09Z</time>
      </trkpt>
      <trkpt lat="43.45391" lon="6.59565">
        <ele>206.82</ele>
        <time>2013-10-07T11:39:24Z</time>
      </trkpt>
      <trkpt lat="43.45396" lon="6.5958">
        <ele>203.94</ele>
        <time>2013-10-07T11:39:41Z</time>
      </trkpt>
      <trkpt lat="43.45402" lon="6.59592">
        <ele>202.01</ele>
        <time>2013-10-07T11:39:57Z</time>
      </trkpt>
      <trkpt lat="43.45405" lon="6.59595">
        <ele>201.53</ele>
        <time>2013-10-07T11:40:29Z</time>
      </trkpt>
      <trkpt lat="43.45401" lon="6.59599">
        <ele>202.49</ele>
        <time>2013-10-07T11:40:45Z</time>
      </trkpt>
      <trkpt lat="43.45402" lon="6.59595">
        <ele>201.05</ele>
        <time>2013-10-07T11:40:59Z</time>
      </trkpt>
      <trkpt lat="43.45406" lon="6.59595">
        <ele>201.05</ele>
        <time>2013-10-07T11:41:13Z</time>
      </trkpt>
      <trkpt lat="43.45409" lon="6.59606">
        <ele>198.65</ele>
        <time>2013-10-07T11:41:28Z</time>
      </trkpt>
      <trkpt lat="43.45415" lon="6.59616">
        <ele>195.28</ele>
        <time>2013-10-07T11:41:43Z</time>
      </trkpt>
      <trkpt lat="43.45421" lon="6.59622">
        <ele>192.4</ele>
        <time>2013-10-07T11:41:59Z</time>
      </trkpt>
      <trkpt lat="43.45425" lon="6.59635">
        <ele>189.52</ele>
        <time>2013-10-07T11:42:13Z</time>
      </trkpt>
      <trkpt lat="43.4543" lon="6.59638">
        <ele>187.59</ele>
        <time>2013-10-07T11:42:21Z</time>
      </trkpt>
      <trkpt lat="43.45439" lon="6.59641">
        <ele>184.71</ele>
        <time>2013-10-07T11:42:37Z</time>
      </trkpt>
      <trkpt lat="43.4545" lon="6.59638">
        <ele>182.31</ele>
        <time>2013-10-07T11:42:51Z</time>
      </trkpt>
      <trkpt lat="43.45457" lon="6.59648">
        <ele>179.9</ele>
        <time>2013-10-07T11:43:06Z</time>
      </trkpt>
      <trkpt lat="43.45465" lon="6.59653">
        <ele>177.98</ele>
        <time>2013-10-07T11:43:20Z</time>
      </trkpt>
      <trkpt lat="43.45467" lon="6.59656">
        <ele>177.02</ele>
        <time>2013-10-07T11:43:34Z</time>
      </trkpt>
      <trkpt lat="43.4547" lon="6.59659">
        <ele>176.54</ele>
        <time>2013-10-07T11:43:53Z</time>
      </trkpt>
      <trkpt lat="43.45474" lon="6.59665">
        <ele>174.14</ele>
        <time>2013-10-07T11:44:07Z</time>
      </trkpt>
      <trkpt lat="43.45472" lon="6.59672">
        <ele>172.21</ele>
        <time>2013-10-07T11:44:21Z</time>
      </trkpt>
      <trkpt lat="43.45477" lon="6.59681">
        <ele>169.33</ele>
        <time>2013-10-07T11:44:36Z</time>
      </trkpt>
      <trkpt lat="43.4548" lon="6.59692">
        <ele>165.96</ele>
        <time>2013-10-07T11:44:50Z</time>
      </trkpt>
      <trkpt lat="43.45485" lon="6.59704">
        <ele>164.04</ele>
        <time>2013-10-07T11:45:06Z</time>
      </trkpt>
      <trkpt lat="43.45486" lon="6.59704">
        <ele>162.6</ele>
        <time>2013-10-07T11:45:09Z</time>
      </trkpt>
      <trkpt lat="43.45495" lon="6.5971">
        <ele>160.2</ele>
        <time>2013-10-07T11:45:25Z</time>
      </trkpt>
      <trkpt lat="43.45502" lon="6.59717">
        <ele>157.31</ele>
        <time>2013-10-07T11:45:39Z</time>
      </trkpt>
      <trkpt lat="43.45504" lon="6.59728">
        <ele>155.87</ele>
        <time>2013-10-07T11:45:54Z</time>
      </trkpt>
      <trkpt lat="43.45504" lon="6.59731">
        <ele>155.39</ele>
        <time>2013-10-07T11:46:10Z</time>
      </trkpt>
      <trkpt lat="43.45507" lon="6.59737">
        <ele>153.95</ele>
        <time>2013-10-07T11:46:22Z</time>
      </trkpt>
      <trkpt lat="43.45508" lon="6.59743">
        <ele>151.54</ele>
        <time>2013-10-07T11:46:37Z</time>
      </trkpt>
      <trkpt lat="43.45514" lon="6.59747">
        <ele>149.62</ele>
        <time>2013-10-07T11:46:49Z</time>
      </trkpt>
      <trkpt lat="43.45518" lon="6.59749">
        <ele>146.74</ele>
        <time>2013-10-07T11:47:01Z</time>
      </trkpt>
      <trkpt lat="43.45518" lon="6.59756">
        <ele>144.82</ele>
        <time>2013-10-07T11:47:17Z</time>
      </trkpt>
      <trkpt lat="43.45523" lon="6.59759">
        <ele>142.41</ele>
        <time>2013-10-07T11:47:31Z</time>
      </trkpt>
      <trkpt lat="43.45528" lon="6.59765">
        <ele>139.53</ele>
        <time>2013-10-07T11:47:44Z</time>
      </trkpt>
      <trkpt lat="43.45532" lon="6.59768">
        <ele>137.61</ele>
        <time>2013-10-07T11:47:57Z</time>
      </trkpt>
      <trkpt lat="43.4554" lon="6.59768">
        <ele>135.2</ele>
        <time>2013-10-07T11:48:10Z</time>
      </trkpt>
      <trkpt lat="43.45542" lon="6.5977">
        <ele>133.76</ele>
        <time>2013-10-07T11:48:24Z</time>
      </trkpt>
      <trkpt lat="43.45541" lon="6.5977">
        <ele>134.24</ele>
        <time>2013-10-07T11:48:27Z</time>
      </trkpt>
      <trkpt lat="43.45551" lon="6.59766">
        <ele>131.36</ele>
        <time>2013-10-07T11:48:41Z</time>
      </trkpt>
      <trkpt lat="43.45556" lon="6.59768">
        <ele>129.92</ele>
        <time>2013-10-07T11:48:48Z</time>
      </trkpt>
      <trkpt lat="43.45556" lon="6.59775">
        <ele>128.95</ele>
        <time>2013-10-07T11:49:04Z</time>
      </trkpt>
      <trkpt lat="43.45557" lon="6.5978">
        <ele>128.47</ele>
        <time>2013-10-07T11:49:18Z</time>
      </trkpt>
      <trkpt lat="43.45553" lon="6.59783">
        <ele>127.99</ele>
        <time>2013-10-07T11:49:26Z</time>
      </trkpt>
      <trkpt lat="43.45551" lon="6.59787">
        <ele>129.43</ele>
        <time>2013-10-07T11:49:38Z</time>
      </trkpt>
      <trkpt lat="43.45553" lon="6.59784">
        <ele>128.47</ele>
        <time>2013-10-07T11:50:08Z</time>
      </trkpt>
      <trkpt lat="43.4556" lon="6.59784">
        <ele>125.59</ele>
        <time>2013-10-07T11:50:20Z</time>
      </trkpt>
      <trkpt lat="43.4557" lon="6.5979">
        <ele>122.22</ele>
        <time>2013-10-07T11:50:34Z</time>
      </trkpt>
      <trkpt lat="43.45576" lon="6.59792">
        <ele>120.78</ele>
        <time>2013-10-07T11:50:47Z</time>
      </trkpt>
      <trkpt lat="43.45578" lon="6.59794">
        <ele>120.78</ele>
        <time>2013-10-07T11:50:50Z</time>
      </trkpt>
      <trkpt lat="43.45592" lon="6.59796">
        <ele>117.42</ele>
        <time>2013-10-07T11:51:05Z</time>
      </trkpt>
      <trkpt lat="43.45604" lon="6.59796">
        <ele>114.53</ele>
        <time>2013-10-07T11:51:20Z</time>
      </trkpt>
      <trkpt lat="43.45615" lon="6.5979">
        <ele>112.61</ele>
        <time>2013-10-07T11:51:33Z</time>
      </trkpt>
      <trkpt lat="43.45618" lon="6.5979">
        <ele>113.09</ele>
        <time>2013-10-07T11:51:45Z</time>
      </trkpt>
      <trkpt lat="43.45617" lon="6.59793">
        <ele>113.09</ele>
        <time>2013-10-07T11:52:01Z</time>
      </trkpt>
      <trkpt lat="43.45623" lon="6.59789">
        <ele>112.13</ele>
        <time>2013-10-07T11:52:18Z</time>
      </trkpt>
      <trkpt lat="43.45633" lon="6.5978">
        <ele>113.09</ele>
        <time>2013-10-07T11:52:29Z</time>
      </trkpt>
      <trkpt lat="43.45652" lon="6.59786">
        <ele>110.21</ele>
        <time>2013-10-07T11:52:46Z</time>
      </trkpt>
      <trkpt lat="43.45653" lon="6.59787">
        <ele>109.73</ele>
        <time>2013-10-07T11:52:47Z</time>
      </trkpt>
      <trkpt lat="43.45667" lon="6.59793">
        <ele>106.84</ele>
        <time>2013-10-07T11:53:01Z</time>
      </trkpt>
      <trkpt lat="43.45681" lon="6.59797">
        <ele>103.96</ele>
        <time>2013-10-07T11:53:14Z</time>
      </trkpt>
      <trkpt lat="43.45683" lon="6.59797">
        <ele>103.96</ele>
        <time>2013-10-07T11:53:15Z</time>
      </trkpt>
      <trkpt lat="43.45698" lon="6.59795">
        <ele>100.6</ele>
        <time>2013-10-07T11:53:30Z</time>
      </trkpt>
      <trkpt lat="43.45707" lon="6.5979">
        <ele>99.15</ele>
        <time>2013-10-07T11:53:42Z</time>
      </trkpt>
      <trkpt lat="43.45711" lon="6.5979">
        <ele>98.19</ele>
        <time>2013-10-07T11:53:46Z</time>
      </trkpt>
      <trkpt lat="43.45722" lon="6.59788">
        <ele>95.31</ele>
        <time>2013-10-07T11:53:58Z</time>
      </trkpt>
      <trkpt lat="43.45732" lon="6.59781">
        <ele>93.39</ele>
        <time>2013-10-07T11:54:11Z</time>
      </trkpt>
      <trkpt lat="43.45744" lon="6.59776">
        <ele>91.94</ele>
        <time>2013-10-07T11:54:23Z</time>
      </trkpt>
      <trkpt lat="43.45742" lon="6.59776">
        <ele>90.98</ele>
        <time>2013-10-07T11:54:34Z</time>
      </trkpt>
      <trkpt lat="43.45744" lon="6.59775">
        <ele>90.98</ele>
        <time>2013-10-07T11:54:44Z</time>
      </trkpt>
      <trkpt lat="43.4575" lon="6.59771">
        <ele>90.98</ele>
        <time>2013-10-07T11:54:58Z</time>
      </trkpt>
      <trkpt lat="43.45755" lon="6.59777">
        <ele>88.58</ele>
        <time>2013-10-07T11:55:10Z</time>
      </trkpt>
      <trkpt lat="43.45754" lon="6.59784">
        <ele>85.69</ele>
        <time>2013-10-07T11:55:23Z</time>
      </trkpt>
      <trkpt lat="43.45754" lon="6.59786">
        <ele>85.69</ele>
        <time>2013-10-07T11:55:26Z</time>
      </trkpt>
      <trkpt lat="43.45763" lon="6.59786">
        <ele>84.25</ele>
        <time>2013-10-07T11:55:34Z</time>
      </trkpt>
      <trkpt lat="43.45779" lon="6.59774">
        <ele>81.37</ele>
        <time>2013-10-07T11:55:51Z</time>
      </trkpt>
      <trkpt lat="43.45782" lon="6.59772">
        <ele>80.89</ele>
        <time>2013-10-07T11:55:55Z</time>
      </trkpt>
      <trkpt lat="43.45792" lon="6.5977">
        <ele>78.97</ele>
        <time>2013-10-07T11:56:05Z</time>
      </trkpt>
      <trkpt lat="43.45796" lon="6.59769">
        <ele>78.48</ele>
        <time>2013-10-07T11:56:09Z</time>
      </trkpt>
      <trkpt lat="43.45798" lon="6.59768">
        <ele>78.48</ele>
        <time>2013-10-07T11:56:11Z</time>
      </trkpt>
      <trkpt lat="43.45806" lon="6.59772">
        <ele>76.08</ele>
        <time>2013-10-07T11:56:20Z</time>
      </trkpt>
      <trkpt lat="43.45823" lon="6.59767">
        <ele>73.68</ele>
        <time>2013-10-07T11:56:35Z</time>
      </trkpt>
      <trkpt lat="43.45824" lon="6.59766">
        <ele>73.2</ele>
        <time>2013-10-07T11:56:36Z</time>
      </trkpt>
      <trkpt lat="43.45832" lon="6.5976">
        <ele>71.76</ele>
        <time>2013-10-07T11:56:53Z</time>
      </trkpt>
      <trkpt lat="43.45837" lon="6.59754">
        <ele>70.31</ele>
        <time>2013-10-07T11:57:04Z</time>
      </trkpt>
      <trkpt lat="43.45837" lon="6.59754">
        <ele>70.31</ele>
        <time>2013-10-07T11:57:05Z</time>
      </trkpt>
      <trkpt lat="43.45846" lon="6.59743">
        <ele>66.95</ele>
        <time>2013-10-07T11:57:19Z</time>
      </trkpt>
      <trkpt lat="43.45849" lon="6.59735">
        <ele>65.51</ele>
        <time>2013-10-07T11:57:25Z</time>
      </trkpt>
      <trkpt lat="43.4585" lon="6.59734">
        <ele>65.03</ele>
        <time>2013-10-07T11:57:26Z</time>
      </trkpt>
      <trkpt lat="43.45859" lon="6.59721">
        <ele>62.62</ele>
        <time>2013-10-07T11:57:41Z</time>
      </trkpt>
      <trkpt lat="43.45861" lon="6.59716">
        <ele>61.66</ele>
        <time>2013-10-07T11:57:46Z</time>
      </trkpt>
      <trkpt lat="43.45866" lon="6.59704">
        <ele>60.7</ele>
        <time>2013-10-07T11:57:57Z</time>
      </trkpt>
      <trkpt lat="43.45873" lon="6.59692">
        <ele>59.74</ele>
        <time>2013-10-07T11:58:11Z</time>
      </trkpt>
      <trkpt lat="43.45879" lon="6.59677">
        <ele>58.3</ele>
        <time>2013-10-07T11:58:26Z</time>
      </trkpt>
      <trkpt lat="43.45885" lon="6.59663">
        <ele>57.34</ele>
        <time>2013-10-07T11:58:39Z</time>
      </trkpt>
      <trkpt lat="43.45891" lon="6.5965">
        <ele>56.86</ele>
        <time>2013-10-07T11:58:50Z</time>
      </trkpt>
      <trkpt lat="43.45895" lon="6.59646">
        <ele>56.37</ele>
        <time>2013-10-07T11:59:05Z</time>
      </trkpt>
      <trkpt lat="43.45902" lon="6.59638">
        <ele>53.97</ele>
        <time>2013-10-07T11:59:16Z</time>
      </trkpt>
      <trkpt lat="43.45905" lon="6.59628">
        <ele>53.01</ele>
        <time>2013-10-07T11:59:29Z</time>
      </trkpt>
      <trkpt lat="43.45903" lon="6.59626">
        <ele>53.49</ele>
        <time>2013-10-07T11:59:34Z</time>
      </trkpt>
      <trkpt lat="43.45897" lon="6.5961">
        <ele>54.93</ele>
        <time>2013-10-07T11:59:46Z</time>
      </trkpt>
      <trkpt lat="43.45893" lon="6.59592">
        <ele>55.89</ele>
        <time>2013-10-07T12:00:00Z</time>
      </trkpt>
      <trkpt lat="43.45892" lon="6.59574">
        <ele>54.93</ele>
        <time>2013-10-07T12:00:15Z</time>
      </trkpt>
      <trkpt lat="43.45888" lon="6.5956">
        <ele>56.86</ele>
        <time>2013-10-07T12:00:28Z</time>
      </trkpt>
      <trkpt lat="43.45884" lon="6.59546">
        <ele>57.82</ele>
        <time>2013-10-07T12:00:43Z</time>
      </trkpt>
      <trkpt lat="43.4588" lon="6.5954">
        <ele>58.3</ele>
        <time>2013-10-07T12:00:58Z</time>
      </trkpt>
      <trkpt lat="43.45877" lon="6.59536">
        <ele>60.7</ele>
        <time>2013-10-07T12:01:12Z</time>
      </trkpt>
      <trkpt lat="43.45883" lon="6.59539">
        <ele>58.3</ele>
        <time>2013-10-07T12:01:23Z</time>
      </trkpt>
      <trkpt lat="43.45884" lon="6.59538">
        <ele>57.82</ele>
        <time>2013-10-07T12:01:36Z</time>
      </trkpt>
      <trkpt lat="43.4588" lon="6.59539">
        <ele>58.78</ele>
        <time>2013-10-07T12:01:47Z</time>
      </trkpt>
      <trkpt lat="43.4587" lon="6.59535">
        <ele>62.14</ele>
        <time>2013-10-07T12:02:01Z</time>
      </trkpt>
      <trkpt lat="43.45866" lon="6.59523">
        <ele>62.14</ele>
        <time>2013-10-07T12:02:14Z</time>
      </trkpt>
      <trkpt lat="43.45863" lon="6.5952">
        <ele>61.66</ele>
        <time>2013-10-07T12:02:27Z</time>
      </trkpt>
      <trkpt lat="43.45856" lon="6.59508">
        <ele>62.62</ele>
        <time>2013-10-07T12:02:39Z</time>
      </trkpt>
      <trkpt lat="43.45852" lon="6.59495">
        <ele>63.1</ele>
        <time>2013-10-07T12:02:52Z</time>
      </trkpt>
      <trkpt lat="43.45847" lon="6.59486">
        <ele>63.58</ele>
        <time>2013-10-07T12:03:02Z</time>
      </trkpt>
      <trkpt lat="43.45842" lon="6.59475">
        <ele>62.14</ele>
        <time>2013-10-07T12:03:15Z</time>
      </trkpt>
      <trkpt lat="43.45842" lon="6.5947">
        <ele>61.66</ele>
        <time>2013-10-07T12:03:32Z</time>
      </trkpt>
      <trkpt lat="43.45836" lon="6.59466">
        <ele>61.18</ele>
        <time>2013-10-07T12:03:47Z</time>
      </trkpt>
      <trkpt lat="43.45836" lon="6.59457">
        <ele>62.62</ele>
        <time>2013-10-07T12:04:03Z</time>
      </trkpt>
      <trkpt lat="43.45839" lon="6.59444">
        <ele>63.58</ele>
        <time>2013-10-07T12:04:17Z</time>
      </trkpt>
      <trkpt lat="43.45841" lon="6.59437">
        <ele>63.58</ele>
        <time>2013-10-07T12:04:34Z</time>
      </trkpt>
      <trkpt lat="43.45844" lon="6.59445">
        <ele>62.62</ele>
        <time>2013-10-07T12:04:50Z</time>
      </trkpt>
      <trkpt lat="43.45853" lon="6.59448">
        <ele>59.26</ele>
        <time>2013-10-07T12:05:03Z</time>
      </trkpt>
      <trkpt lat="43.45864" lon="6.59449">
        <ele>56.86</ele>
        <time>2013-10-07T12:05:20Z</time>
      </trkpt>
      <trkpt lat="43.45873" lon="6.59437">
        <ele>54.93</ele>
        <time>2013-10-07T12:05:35Z</time>
      </trkpt>
      <trkpt lat="43.45882" lon="6.59428">
        <ele>53.49</ele>
        <time>2013-10-07T12:05:50Z</time>
      </trkpt>
      <trkpt lat="43.45885" lon="6.59429">
        <ele>53.49</ele>
        <time>2013-10-07T12:06:07Z</time>
      </trkpt>
      <trkpt lat="43.45893" lon="6.59426">
        <ele>52.53</ele>
        <time>2013-10-07T12:06:24Z</time>
      </trkpt>
      <trkpt lat="43.45892" lon="6.59429">
        <ele>52.05</ele>
        <time>2013-10-07T12:06:37Z</time>
      </trkpt>
      <trkpt lat="43.45901" lon="6.59451">
        <ele>49.16</ele>
        <time>2013-10-07T12:06:54Z</time>
      </trkpt>
      <trkpt lat="43.45913" lon="6.59462">
        <ele>47.72</ele>
        <time>2013-10-07T12:07:10Z</time>
      </trkpt>
      <trkpt lat="43.45928" lon="6.59452">
        <ele>46.28</ele>
        <time>2013-10-07T12:07:24Z</time>
      </trkpt>
      <trkpt lat="43.4594" lon="6.59446">
        <ele>44.84</ele>
        <time>2013-10-07T12:07:37Z</time>
      </trkpt>
      <trkpt lat="43.45959" lon="6.59434">
        <ele>42.92</ele>
        <time>2013-10-07T12:07:54Z</time>
      </trkpt>
      <trkpt lat="43.45973" lon="6.59422">
        <ele>40.99</ele>
        <time>2013-10-07T12:08:09Z</time>
      </trkpt>
      <trkpt lat="43.45984" lon="6.59416">
        <ele>40.03</ele>
        <time>2013-10-07T12:08:24Z</time>
      </trkpt>
      <trkpt lat="43.45993" lon="6.59402">
        <ele>39.07</ele>
        <time>2013-10-07T12:08:39Z</time>
      </trkpt>
      <trkpt lat="43.46003" lon="6.59381">
        <ele>39.07</ele>
        <time>2013-10-07T12:08:56Z</time>
      </trkpt>
      <trkpt lat="43.45996" lon="6.59355">
        <ele>39.07</ele>
        <time>2013-10-07T12:09:11Z</time>
      </trkpt>
      <trkpt lat="43.45989" lon="6.59342">
        <ele>39.07</ele>
        <time>2013-10-07T12:09:20Z</time>
      </trkpt>
      <trkpt lat="43.45977" lon="6.59322">
        <ele>40.03</ele>
        <time>2013-10-07T12:09:36Z</time>
      </trkpt>
      <trkpt lat="43.45974" lon="6.59305">
        <ele>40.51</ele>
        <time>2013-10-07T12:09:49Z</time>
      </trkpt>
      <trkpt lat="43.45973" lon="6.59293">
        <ele>41.47</ele>
        <time>2013-10-07T12:09:58Z</time>
      </trkpt>
      <trkpt lat="43.45972" lon="6.59288">
        <ele>41.95</ele>
        <time>2013-10-07T12:10:03Z</time>
      </trkpt>
      <trkpt lat="43.45959" lon="6.59277">
        <ele>43.88</ele>
        <time>2013-10-07T12:10:19Z</time>
      </trkpt>
      <trkpt lat="43.45944" lon="6.59281">
        <ele>45.8</ele>
        <time>2013-10-07T12:10:35Z</time>
      </trkpt>
      <trkpt lat="43.45935" lon="6.5929">
        <ele>47.72</ele>
        <time>2013-10-07T12:10:47Z</time>
      </trkpt>
      <trkpt lat="43.4593" lon="6.59299">
        <ele>49.65</ele>
        <time>2013-10-07T12:10:58Z</time>
      </trkpt>
      <trkpt lat="43.45917" lon="6.59309">
        <ele>50.61</ele>
        <time>2013-10-07T12:11:14Z</time>
      </trkpt>
      <trkpt lat="43.45905" lon="6.59318">
        <ele>52.53</ele>
        <time>2013-10-07T12:11:29Z</time>
      </trkpt>
      <trkpt lat="43.45899" lon="6.59325">
        <ele>54.93</ele>
        <time>2013-10-07T12:11:43Z</time>
      </trkpt>
      <trkpt lat="43.45892" lon="6.59326">
        <ele>55.41</ele>
        <time>2013-10-07T12:11:52Z</time>
      </trkpt>
      <trkpt lat="43.45891" lon="6.59329">
        <ele>54.93</ele>
        <time>2013-10-07T12:12:05Z</time>
      </trkpt>
      <trkpt lat="43.4589" lon="6.59328">
        <ele>55.89</ele>
        <time>2013-10-07T12:13:28Z</time>
      </trkpt>
      <trkpt lat="43.45887" lon="6.59314">
        <ele>56.37</ele>
        <time>2013-10-07T12:13:45Z</time>
      </trkpt>
      <trkpt lat="43.45888" lon="6.59297">
        <ele>58.78</ele>
        <time>2013-10-07T12:14:01Z</time>
      </trkpt>
      <trkpt lat="43.45892" lon="6.59282">
        <ele>61.18</ele>
        <time>2013-10-07T12:14:15Z</time>
      </trkpt>
      <trkpt lat="43.45885" lon="6.59276">
        <ele>62.14</ele>
        <time>2013-10-07T12:14:30Z</time>
      </trkpt>
      <trkpt lat="43.45882" lon="6.59269">
        <ele>64.07</ele>
        <time>2013-10-07T12:14:43Z</time>
      </trkpt>
      <trkpt lat="43.45886" lon="6.59237">
        <ele>69.83</ele>
        <time>2013-10-07T12:16:16Z</time>
      </trkpt>
      <trkpt lat="43.45891" lon="6.59224">
        <ele>70.31</ele>
        <time>2013-10-07T12:16:28Z</time>
      </trkpt>
      <trkpt lat="43.45894" lon="6.59204">
        <ele>69.83</ele>
        <time>2013-10-07T12:16:42Z</time>
      </trkpt>
      <trkpt lat="43.45893" lon="6.59184">
        <ele>67.43</ele>
        <time>2013-10-07T12:16:58Z</time>
      </trkpt>
      <trkpt lat="43.45898" lon="6.59175">
        <ele>67.43</ele>
        <time>2013-10-07T12:17:10Z</time>
      </trkpt>
      <trkpt lat="43.45906" lon="6.59169">
        <ele>66.95</ele>
        <time>2013-10-07T12:17:29Z</time>
      </trkpt>
      <trkpt lat="43.45904" lon="6.59165">
        <ele>65.99</ele>
        <time>2013-10-07T12:17:43Z</time>
      </trkpt>
      <trkpt lat="43.45907" lon="6.5916">
        <ele>64.07</ele>
        <time>2013-10-07T12:17:56Z</time>
      </trkpt>
      <trkpt lat="43.45905" lon="6.59171">
        <ele>66.95</ele>
        <time>2013-10-07T12:18:08Z</time>
      </trkpt>
      <trkpt lat="43.45895" lon="6.59178">
        <ele>67.43</ele>
        <time>2013-10-07T12:18:22Z</time>
      </trkpt>
      <trkpt lat="43.45893" lon="6.59182">
        <ele>66.95</ele>
        <time>2013-10-07T12:18:25Z</time>
      </trkpt>
      <trkpt lat="43.45891" lon="6.59197">
        <ele>68.87</ele>
        <time>2013-10-07T12:18:39Z</time>
      </trkpt>
      <trkpt lat="43.45889" lon="6.59207">
        <ele>70.31</ele>
        <time>2013-10-07T12:18:51Z</time>
      </trkpt>
      <trkpt lat="43.45883" lon="6.59221">
        <ele>70.31</ele>
        <time>2013-10-07T12:19:06Z</time>
      </trkpt>
      <trkpt lat="43.4588" lon="6.5922">
        <ele>72.24</ele>
        <time>2013-10-07T12:19:13Z</time>
      </trkpt>
      <trkpt lat="43.45874" lon="6.59217">
        <ele>72.24</ele>
        <time>2013-10-07T12:19:27Z</time>
      </trkpt>
      <trkpt lat="43.45874" lon="6.59218">
        <ele>72.24</ele>
        <time>2013-10-07T12:19:48Z</time>
      </trkpt>
      <trkpt lat="43.45876" lon="6.59212">
        <ele>71.76</ele>
        <time>2013-10-07T12:20:04Z</time>
      </trkpt>
      <trkpt lat="43.45877" lon="6.59218">
        <ele>72.24</ele>
        <time>2013-10-07T12:20:31Z</time>
      </trkpt>
      <trkpt lat="43.45872" lon="6.59228">
        <ele>73.2</ele>
        <time>2013-10-07T12:20:46Z</time>
      </trkpt>
      <trkpt lat="43.45863" lon="6.59224">
        <ele>73.68</ele>
        <time>2013-10-07T12:21:05Z</time>
      </trkpt>
      <trkpt lat="43.45859" lon="6.5925">
        <ele>70.79</ele>
        <time>2013-10-07T12:21:20Z</time>
      </trkpt>
      <trkpt lat="43.45858" lon="6.59277">
        <ele>74.64</ele>
        <time>2013-10-07T12:37:44Z</time>
      </trkpt>
      <trkpt lat="43.45863" lon="6.59289">
        <ele>71.76</ele>
        <time>2013-10-07T12:37:58Z</time>
      </trkpt>
      <trkpt lat="43.45862" lon="6.59294">
        <ele>70.79</ele>
        <time>2013-10-07T12:38:16Z</time>
      </trkpt>
      <trkpt lat="43.45862" lon="6.59289">
        <ele>67.91</ele>
        <time>2013-10-07T12:39:35Z</time>
      </trkpt>
      <trkpt lat="43.45862" lon="6.59287">
        <ele>67.43</ele>
        <time>2013-10-07T12:40:16Z</time>
      </trkpt>
      <trkpt lat="43.45861" lon="6.59295">
        <ele>68.39</ele>
        <time>2013-10-07T12:40:30Z</time>
      </trkpt>
      <trkpt lat="43.45869" lon="6.59307">
        <ele>65.99</ele>
        <time>2013-10-07T12:40:45Z</time>
      </trkpt>
      <trkpt lat="43.45858" lon="6.59316">
        <ele>65.99</ele>
        <time>2013-10-07T12:40:56Z</time>
      </trkpt>
      <trkpt lat="43.45848" lon="6.5932">
        <ele>66.47</ele>
        <time>2013-10-07T12:41:15Z</time>
      </trkpt>
      <trkpt lat="43.4585" lon="6.5932">
        <ele>68.39</ele>
        <time>2013-10-07T12:41:34Z</time>
      </trkpt>
      <trkpt lat="43.45842" lon="6.59332">
        <ele>67.91</ele>
        <time>2013-10-07T12:46:37Z</time>
      </trkpt>
      <trkpt lat="43.45853" lon="6.59333">
        <ele>65.51</ele>
        <time>2013-10-07T12:46:54Z</time>
      </trkpt>
      <trkpt lat="43.4586" lon="6.59341">
        <ele>65.51</ele>
        <time>2013-10-07T12:47:08Z</time>
      </trkpt>
      <trkpt lat="43.45858" lon="6.59337">
        <ele>65.51</ele>
        <time>2013-10-07T12:47:30Z</time>
      </trkpt>
      <trkpt lat="43.45866" lon="6.59334">
        <ele>63.58</ele>
        <time>2013-10-07T12:47:43Z</time>
      </trkpt>
      <trkpt lat="43.45871" lon="6.59335">
        <ele>61.66</ele>
        <time>2013-10-07T12:47:56Z</time>
      </trkpt>
      <trkpt lat="43.45874" lon="6.59336">
        <ele>59.26</ele>
        <time>2013-10-07T12:48:10Z</time>
      </trkpt>
      <trkpt lat="43.45876" lon="6.59337">
        <ele>58.3</ele>
        <time>2013-10-07T12:48:28Z</time>
      </trkpt>
      <trkpt lat="43.45888" lon="6.59338">
        <ele>56.37</ele>
        <time>2013-10-07T12:48:45Z</time>
      </trkpt>
      <trkpt lat="43.45888" lon="6.59332">
        <ele>55.89</ele>
        <time>2013-10-07T12:49:55Z</time>
      </trkpt>
      <trkpt lat="43.45897" lon="6.59327">
        <ele>55.89</ele>
        <time>2013-10-07T12:50:12Z</time>
      </trkpt>
      <trkpt lat="43.4591" lon="6.59318">
        <ele>53.01</ele>
        <time>2013-10-07T12:50:28Z</time>
      </trkpt>
      <trkpt lat="43.45919" lon="6.59311">
        <ele>51.57</ele>
        <time>2013-10-07T12:50:42Z</time>
      </trkpt>
      <trkpt lat="43.45918" lon="6.59308">
        <ele>51.09</ele>
        <time>2013-10-07T12:51:06Z</time>
      </trkpt>
      <trkpt lat="43.4593" lon="6.59296">
        <ele>49.16</ele>
        <time>2013-10-07T12:51:20Z</time>
      </trkpt>
      <trkpt lat="43.45938" lon="6.59284">
        <ele>45.8</ele>
        <time>2013-10-07T12:51:35Z</time>
      </trkpt>
      <trkpt lat="43.45955" lon="6.59279">
        <ele>44.36</ele>
        <time>2013-10-07T12:51:50Z</time>
      </trkpt>
      <trkpt lat="43.45969" lon="6.59286">
        <ele>41.95</ele>
        <time>2013-10-07T12:52:03Z</time>
      </trkpt>
      <trkpt lat="43.4597" lon="6.59288">
        <ele>41.47</ele>
        <time>2013-10-07T12:52:04Z</time>
      </trkpt>
      <trkpt lat="43.45973" lon="6.593">
        <ele>40.99</ele>
        <time>2013-10-07T12:52:18Z</time>
      </trkpt>
      <trkpt lat="43.45973" lon="6.5931">
        <ele>40.03</ele>
        <time>2013-10-07T12:52:30Z</time>
      </trkpt>
      <trkpt lat="43.45976" lon="6.59319">
        <ele>40.51</ele>
        <time>2013-10-07T12:52:36Z</time>
      </trkpt>
      <trkpt lat="43.4598" lon="6.59321">
        <ele>39.55</ele>
        <time>2013-10-07T12:52:39Z</time>
      </trkpt>
      <trkpt lat="43.45997" lon="6.59314">
        <ele>37.63</ele>
        <time>2013-10-07T12:52:54Z</time>
      </trkpt>
      <trkpt lat="43.46005" lon="6.59301">
        <ele>35.71</ele>
        <time>2013-10-07T12:53:07Z</time>
      </trkpt>
      <trkpt lat="43.46005" lon="6.59293">
        <ele>35.23</ele>
        <time>2013-10-07T12:53:13Z</time>
      </trkpt>
      <trkpt lat="43.46009" lon="6.5928">
        <ele>33.78</ele>
        <time>2013-10-07T12:53:21Z</time>
      </trkpt>
      <trkpt lat="43.46026" lon="6.59266">
        <ele>30.9</ele>
        <time>2013-10-07T12:53:37Z</time>
      </trkpt>
      <trkpt lat="43.46042" lon="6.59271">
        <ele>29.94</ele>
        <time>2013-10-07T12:53:51Z</time>
      </trkpt>
      <trkpt lat="43.46048" lon="6.59275">
        <ele>29.46</ele>
        <time>2013-10-07T12:53:57Z</time>
      </trkpt>
      <trkpt lat="43.46052" lon="6.59292">
        <ele>29.46</ele>
        <time>2013-10-07T12:54:14Z</time>
      </trkpt>
      <trkpt lat="43.46052" lon="6.59297">
        <ele>29.46</ele>
        <time>2013-10-07T12:54:18Z</time>
      </trkpt>
      <trkpt lat="43.46048" lon="6.59324">
        <ele>31.38</ele>
        <time>2013-10-07T12:54:35Z</time>
      </trkpt>
      <trkpt lat="43.46044" lon="6.5934">
        <ele>31.38</ele>
        <time>2013-10-07T12:54:47Z</time>
      </trkpt>
      <trkpt lat="43.4604" lon="6.59351">
        <ele>32.34</ele>
        <time>2013-10-07T12:54:54Z</time>
      </trkpt>
      <trkpt lat="43.4604" lon="6.59358">
        <ele>32.82</ele>
        <time>2013-10-07T12:54:58Z</time>
      </trkpt>
      <trkpt lat="43.46035" lon="6.59382">
        <ele>33.3</ele>
        <time>2013-10-07T12:55:13Z</time>
      </trkpt>
      <trkpt lat="43.46032" lon="6.5939">
        <ele>33.78</ele>
        <time>2013-10-07T12:55:19Z</time>
      </trkpt>
      <trkpt lat="43.46029" lon="6.5941">
        <ele>34.74</ele>
        <time>2013-10-07T12:55:33Z</time>
      </trkpt>
      <trkpt lat="43.46023" lon="6.59434">
        <ele>34.74</ele>
        <time>2013-10-07T12:55:48Z</time>
      </trkpt>
      <trkpt lat="43.46018" lon="6.59458">
        <ele>35.71</ele>
        <time>2013-10-07T12:56:03Z</time>
      </trkpt>
      <trkpt lat="43.46011" lon="6.59484">
        <ele>36.19</ele>
        <time>2013-10-07T12:56:18Z</time>
      </trkpt>
      <trkpt lat="43.46006" lon="6.59507">
        <ele>36.19</ele>
        <time>2013-10-07T12:56:32Z</time>
      </trkpt>
      <trkpt lat="43.46004" lon="6.59514">
        <ele>35.71</ele>
        <time>2013-10-07T12:56:36Z</time>
      </trkpt>
      <trkpt lat="43.45997" lon="6.59542">
        <ele>35.23</ele>
        <time>2013-10-07T12:56:53Z</time>
      </trkpt>
      <trkpt lat="43.45992" lon="6.59568">
        <ele>34.74</ele>
        <time>2013-10-07T12:57:07Z</time>
      </trkpt>
      <trkpt lat="43.45987" lon="6.59591">
        <ele>33.78</ele>
        <time>2013-10-07T12:57:22Z</time>
      </trkpt>
      <trkpt lat="43.45979" lon="6.5962">
        <ele>32.82</ele>
        <time>2013-10-07T12:57:38Z</time>
      </trkpt>
      <trkpt lat="43.45976" lon="6.59629">
        <ele>33.3</ele>
        <time>2013-10-07T12:57:47Z</time>
      </trkpt>
      <trkpt lat="43.45976" lon="6.59633">
        <ele>32.82</ele>
        <time>2013-10-07T12:57:49Z</time>
      </trkpt>
      <trkpt lat="43.45969" lon="6.59658">
        <ele>32.82</ele>
        <time>2013-10-07T12:58:04Z</time>
      </trkpt>
      <trkpt lat="43.45963" lon="6.59686">
        <ele>32.82</ele>
        <time>2013-10-07T12:58:20Z</time>
      </trkpt>
      <trkpt lat="43.45957" lon="6.59711">
        <ele>33.78</ele>
        <time>2013-10-07T12:58:35Z</time>
      </trkpt>
      <trkpt lat="43.45955" lon="6.59716">
        <ele>33.3</ele>
        <time>2013-10-07T12:58:39Z</time>
      </trkpt>
      <trkpt lat="43.45949" lon="6.59744">
        <ele>33.78</ele>
        <time>2013-10-07T12:58:55Z</time>
      </trkpt>
      <trkpt lat="43.45942" lon="6.59771">
        <ele>34.74</ele>
        <time>2013-10-07T12:59:12Z</time>
      </trkpt>
      <trkpt lat="43.45937" lon="6.59797">
        <ele>35.71</ele>
        <time>2013-10-07T12:59:28Z</time>
      </trkpt>
      <trkpt lat="43.45932" lon="6.59816">
        <ele>36.19</ele>
        <time>2013-10-07T12:59:40Z</time>
      </trkpt>
      <trkpt lat="43.45926" lon="6.59844">
        <ele>36.19</ele>
        <time>2013-10-07T12:59:56Z</time>
      </trkpt>
      <trkpt lat="43.45922" lon="6.59867">
        <ele>36.19</ele>
        <time>2013-10-07T13:00:10Z</time>
      </trkpt>
      <trkpt lat="43.45917" lon="6.59891">
        <ele>35.71</ele>
        <time>2013-10-07T13:00:25Z</time>
      </trkpt>
      <trkpt lat="43.45911" lon="6.59916">
        <ele>34.74</ele>
        <time>2013-10-07T13:00:39Z</time>
      </trkpt>
      <trkpt lat="43.45907" lon="6.59939">
        <ele>33.3</ele>
        <time>2013-10-07T13:00:53Z</time>
      </trkpt>
      <trkpt lat="43.45902" lon="6.59967">
        <ele>31.86</ele>
        <time>2013-10-07T13:01:08Z</time>
      </trkpt>
      <trkpt lat="43.45895" lon="6.59999">
        <ele>31.38</ele>
        <time>2013-10-07T13:01:26Z</time>
      </trkpt>
      <trkpt lat="43.4589" lon="6.60022">
        <ele>30.9</ele>
        <time>2013-10-07T13:01:40Z</time>
      </trkpt>
      <trkpt lat="43.45886" lon="6.60042">
        <ele>30.9</ele>
        <time>2013-10-07T13:01:51Z</time>
      </trkpt>
      <trkpt lat="43.45883" lon="6.60056">
        <ele>30.42</ele>
        <time>2013-10-07T13:01:59Z</time>
      </trkpt>
      <trkpt lat="43.45876" lon="6.60087">
        <ele>30.9</ele>
        <time>2013-10-07T13:02:17Z</time>
      </trkpt>
      <trkpt lat="43.45871" lon="6.60123">
        <ele>31.86</ele>
        <time>2013-10-07T13:02:37Z</time>
      </trkpt>
      <trkpt lat="43.45867" lon="6.60152">
        <ele>33.3</ele>
        <time>2013-10-07T13:02:53Z</time>
      </trkpt>
      <trkpt lat="43.45864" lon="6.6018">
        <ele>33.78</ele>
        <time>2013-10-07T13:03:07Z</time>
      </trkpt>
      <trkpt lat="43.45862" lon="6.60205">
        <ele>31.86</ele>
        <time>2013-10-07T13:03:22Z</time>
      </trkpt>
      <trkpt lat="43.45862" lon="6.60207">
        <ele>35.71</ele>
        <time>2013-10-07T13:03:23Z</time>
      </trkpt>
      <trkpt lat="43.45859" lon="6.60243">
        <ele>34.74</ele>
        <time>2013-10-07T13:03:43Z</time>
      </trkpt>
      <trkpt lat="43.45855" lon="6.60279">
        <ele>35.71</ele>
        <time>2013-10-07T13:04:02Z</time>
      </trkpt>
      <trkpt lat="43.45853" lon="6.60307">
        <ele>36.19</ele>
        <time>2013-10-07T13:04:17Z</time>
      </trkpt>
      <trkpt lat="43.45852" lon="6.60332">
        <ele>36.19</ele>
        <time>2013-10-07T13:04:30Z</time>
      </trkpt>
      <trkpt lat="43.45851" lon="6.6035">
        <ele>35.71</ele>
        <time>2013-10-07T13:04:40Z</time>
      </trkpt>
      <trkpt lat="43.45851" lon="6.60379">
        <ele>35.71</ele>
        <time>2013-10-07T13:04:55Z</time>
      </trkpt>
      <trkpt lat="43.45851" lon="6.60385">
        <ele>35.71</ele>
        <time>2013-10-07T13:04:59Z</time>
      </trkpt>
      <trkpt lat="43.45852" lon="6.60399">
        <ele>35.23</ele>
        <time>2013-10-07T13:05:06Z</time>
      </trkpt>
      <trkpt lat="43.45851" lon="6.60409">
        <ele>34.74</ele>
        <time>2013-10-07T13:05:12Z</time>
      </trkpt>
      <trkpt lat="43.45853" lon="6.60443">
        <ele>33.3</ele>
        <time>2013-10-07T13:05:30Z</time>
      </trkpt>
      <trkpt lat="43.45854" lon="6.60468">
        <ele>32.82</ele>
        <time>2013-10-07T13:05:43Z</time>
      </trkpt>
      <trkpt lat="43.45855" lon="6.60494">
        <ele>31.86</ele>
        <time>2013-10-07T13:05:58Z</time>
      </trkpt>
      <trkpt lat="43.45858" lon="6.60522">
        <ele>31.38</ele>
        <time>2013-10-07T13:06:14Z</time>
      </trkpt>
      <trkpt lat="43.45859" lon="6.60551">
        <ele>31.86</ele>
        <time>2013-10-07T13:06:30Z</time>
      </trkpt>
      <trkpt lat="43.45862" lon="6.60581">
        <ele>32.34</ele>
        <time>2013-10-07T13:06:46Z</time>
      </trkpt>
      <trkpt lat="43.45864" lon="6.60616">
        <ele>32.82</ele>
        <time>2013-10-07T13:07:03Z</time>
      </trkpt>
      <trkpt lat="43.45869" lon="6.60643">
        <ele>32.82</ele>
        <time>2013-10-07T13:07:18Z</time>
      </trkpt>
      <trkpt lat="43.45876" lon="6.60666">
        <ele>32.82</ele>
        <time>2013-10-07T13:07:33Z</time>
      </trkpt>
      <trkpt lat="43.45883" lon="6.60698">
        <ele>32.82</ele>
        <time>2013-10-07T13:07:51Z</time>
      </trkpt>
      <trkpt lat="43.45885" lon="6.60709">
        <ele>32.82</ele>
        <time>2013-10-07T13:07:57Z</time>
      </trkpt>
      <trkpt lat="43.45886" lon="6.60718">
        <ele>32.34</ele>
        <time>2013-10-07T13:08:02Z</time>
      </trkpt>
      <trkpt lat="43.45894" lon="6.60753">
        <ele>31.86</ele>
        <time>2013-10-07T13:08:21Z</time>
      </trkpt>
      <trkpt lat="43.45899" lon="6.60773">
        <ele>30.9</ele>
        <time>2013-10-07T13:08:32Z</time>
      </trkpt>
      <trkpt lat="43.45907" lon="6.60798">
        <ele>31.38</ele>
        <time>2013-10-07T13:08:47Z</time>
      </trkpt>
      <trkpt lat="43.45913" lon="6.60822">
        <ele>30.9</ele>
        <time>2013-10-07T13:09:01Z</time>
      </trkpt>
      <trkpt lat="43.45919" lon="6.60846">
        <ele>30.9</ele>
        <time>2013-10-07T13:09:15Z</time>
      </trkpt>
      <trkpt lat="43.45923" lon="6.60864">
        <ele>31.86</ele>
        <time>2013-10-07T13:09:25Z</time>
      </trkpt>
      <trkpt lat="43.45928" lon="6.60891">
        <ele>31.86</ele>
        <time>2013-10-07T13:09:41Z</time>
      </trkpt>
      <trkpt lat="43.4593" lon="6.60901">
        <ele>32.34</ele>
        <time>2013-10-07T13:09:47Z</time>
      </trkpt>
      <trkpt lat="43.45932" lon="6.60911">
        <ele>32.34</ele>
        <time>2013-10-07T13:09:53Z</time>
      </trkpt>
      <trkpt lat="43.45933" lon="6.60919">
        <ele>32.82</ele>
        <time>2013-10-07T13:09:57Z</time>
      </trkpt>
      <trkpt lat="43.45939" lon="6.60933">
        <ele>33.78</ele>
        <time>2013-10-07T13:10:12Z</time>
      </trkpt>
      <trkpt lat="43.45939" lon="6.60934">
        <ele>33.78</ele>
        <time>2013-10-07T13:10:14Z</time>
      </trkpt>
      <trkpt lat="43.4594" lon="6.60939">
        <ele>33.78</ele>
        <time>2013-10-07T13:10:18Z</time>
      </trkpt>
      <trkpt lat="43.45944" lon="6.60971">
        <ele>34.74</ele>
        <time>2013-10-07T13:10:38Z</time>
      </trkpt>
      <trkpt lat="43.45924" lon="6.60983">
        <ele>34.26</ele>
        <time>2013-10-07T13:10:58Z</time>
      </trkpt>
      <trkpt lat="43.4591" lon="6.60993">
        <ele>32.34</ele>
        <time>2013-10-07T13:11:12Z</time>
      </trkpt>
      <trkpt lat="43.45892" lon="6.61001">
        <ele>31.86</ele>
        <time>2013-10-07T13:11:28Z</time>
      </trkpt>
      <trkpt lat="43.45875" lon="6.61009">
        <ele>29.94</ele>
        <time>2013-10-07T13:11:43Z</time>
      </trkpt>
      <trkpt lat="43.45856" lon="6.61012">
        <ele>28.5</ele>
        <time>2013-10-07T13:11:58Z</time>
      </trkpt>
      <trkpt lat="43.45839" lon="6.61004">
        <ele>27.05</ele>
        <time>2013-10-07T13:12:12Z</time>
      </trkpt>
      <trkpt lat="43.45823" lon="6.60999">
        <ele>25.61</ele>
        <time>2013-10-07T13:12:25Z</time>
      </trkpt>
      <trkpt lat="43.45808" lon="6.60996">
        <ele>25.61</ele>
        <time>2013-10-07T13:12:36Z</time>
      </trkpt>
      <trkpt lat="43.45791" lon="6.61005">
        <ele>25.13</ele>
        <time>2013-10-07T13:12:52Z</time>
      </trkpt>
      <trkpt lat="43.45771" lon="6.61025">
        <ele>24.65</ele>
        <time>2013-10-07T13:13:09Z</time>
      </trkpt>
      <trkpt lat="43.45753" lon="6.61047">
        <ele>23.69</ele>
        <time>2013-10-07T13:13:27Z</time>
      </trkpt>
      <trkpt lat="43.45732" lon="6.61064">
        <ele>24.17</ele>
        <time>2013-10-07T13:13:45Z</time>
      </trkpt>
      <trkpt lat="43.45709" lon="6.61071">
        <ele>23.69</ele>
        <time>2013-10-07T13:14:03Z</time>
      </trkpt>
      <trkpt lat="43.4569" lon="6.61071">
        <ele>23.69</ele>
        <time>2013-10-07T13:14:17Z</time>
      </trkpt>
      <trkpt lat="43.45672" lon="6.61069">
        <ele>23.21</ele>
        <time>2013-10-07T13:14:32Z</time>
      </trkpt>
      <trkpt lat="43.4565" lon="6.61074">
        <ele>22.73</ele>
        <time>2013-10-07T13:14:49Z</time>
      </trkpt>
      <trkpt lat="43.45635" lon="6.6109">
        <ele>23.21</ele>
        <time>2013-10-07T13:15:03Z</time>
      </trkpt>
      <trkpt lat="43.45618" lon="6.6111">
        <ele>22.73</ele>
        <time>2013-10-07T13:15:18Z</time>
      </trkpt>
      <trkpt lat="43.45602" lon="6.61135">
        <ele>22.73</ele>
        <time>2013-10-07T13:15:35Z</time>
      </trkpt>
      <trkpt lat="43.45591" lon="6.61159">
        <ele>23.21</ele>
        <time>2013-10-07T13:15:50Z</time>
      </trkpt>
      <trkpt lat="43.45579" lon="6.61179">
        <ele>22.25</ele>
        <time>2013-10-07T13:16:05Z</time>
      </trkpt>
      <trkpt lat="43.45578" lon="6.6118">
        <ele>22.25</ele>
        <time>2013-10-07T13:16:06Z</time>
      </trkpt>
      <trkpt lat="43.45569" lon="6.61186">
        <ele>22.25</ele>
        <time>2013-10-07T13:16:14Z</time>
      </trkpt>
      <trkpt lat="43.45562" lon="6.61189">
        <ele>22.25</ele>
        <time>2013-10-07T13:16:19Z</time>
      </trkpt>
      <trkpt lat="43.45535" lon="6.61192">
        <ele>21.29</ele>
        <time>2013-10-07T13:16:37Z</time>
      </trkpt>
      <trkpt lat="43.45516" lon="6.61196">
        <ele>22.25</ele>
        <time>2013-10-07T13:16:52Z</time>
      </trkpt>
      <trkpt lat="43.45511" lon="6.61196">
        <ele>21.77</ele>
        <time>2013-10-07T13:16:56Z</time>
      </trkpt>
      <trkpt lat="43.45492" lon="6.61202">
        <ele>21.77</ele>
        <time>2013-10-07T13:17:11Z</time>
      </trkpt>
      <trkpt lat="43.45469" lon="6.61197">
        <ele>21.29</ele>
        <time>2013-10-07T13:17:27Z</time>
      </trkpt>
      <trkpt lat="43.45452" lon="6.61189">
        <ele>22.25</ele>
        <time>2013-10-07T13:17:41Z</time>
      </trkpt>
      <trkpt lat="43.45431" lon="6.61179">
        <ele>21.29</ele>
        <time>2013-10-07T13:17:57Z</time>
      </trkpt>
      <trkpt lat="43.45425" lon="6.61177">
        <ele>21.29</ele>
        <time>2013-10-07T13:18:02Z</time>
      </trkpt>
      <trkpt lat="43.45406" lon="6.61188">
        <ele>21.29</ele>
        <time>2013-10-07T13:18:18Z</time>
      </trkpt>
      <trkpt lat="43.454" lon="6.6121">
        <ele>20.32</ele>
        <time>2013-10-07T13:18:32Z</time>
      </trkpt>
      <trkpt lat="43.45399" lon="6.61243">
        <ele>20.81</ele>
        <time>2013-10-07T13:18:50Z</time>
      </trkpt>
      <trkpt lat="43.45399" lon="6.61268">
        <ele>20.32</ele>
        <time>2013-10-07T13:19:05Z</time>
      </trkpt>
      <trkpt lat="43.45398" lon="6.61271">
        <ele>20.81</ele>
        <time>2013-10-07T13:19:07Z</time>
      </trkpt>
      <trkpt lat="43.45394" lon="6.6128">
        <ele>20.32</ele>
        <time>2013-10-07T13:19:13Z</time>
      </trkpt>
      <trkpt lat="43.45385" lon="6.6129">
        <ele>20.32</ele>
        <time>2013-10-07T13:19:23Z</time>
      </trkpt>
      <trkpt lat="43.45372" lon="6.61291">
        <ele>20.32</ele>
        <time>2013-10-07T13:19:34Z</time>
      </trkpt>
      <trkpt lat="43.45354" lon="6.61285">
        <ele>20.81</ele>
        <time>2013-10-07T13:19:50Z</time>
      </trkpt>
      <trkpt lat="43.4534" lon="6.61283">
        <ele>20.81</ele>
        <time>2013-10-07T13:20:02Z</time>
      </trkpt>
      <trkpt lat="43.45335" lon="6.61284">
        <ele>20.32</ele>
        <time>2013-10-07T13:20:06Z</time>
      </trkpt>
      <trkpt lat="43.45314" lon="6.61294">
        <ele>20.81</ele>
        <time>2013-10-07T13:20:23Z</time>
      </trkpt>
      <trkpt lat="43.45309" lon="6.61301">
        <ele>20.81</ele>
        <time>2013-10-07T13:20:29Z</time>
      </trkpt>
      <trkpt lat="43.45304" lon="6.61308">
        <ele>21.29</ele>
        <time>2013-10-07T13:20:35Z</time>
      </trkpt>
      <trkpt lat="43.45291" lon="6.6133">
        <ele>21.29</ele>
        <time>2013-10-07T13:20:52Z</time>
      </trkpt>
      <trkpt lat="43.45283" lon="6.61353">
        <ele>21.29</ele>
        <time>2013-10-07T13:21:07Z</time>
      </trkpt>
      <trkpt lat="43.45274" lon="6.61372">
        <ele>20.81</ele>
        <time>2013-10-07T13:21:22Z</time>
      </trkpt>
      <trkpt lat="43.45253" lon="6.61378">
        <ele>21.29</ele>
        <time>2013-10-07T13:21:38Z</time>
      </trkpt>
      <trkpt lat="43.45247" lon="6.61386">
        <ele>21.29</ele>
        <time>2013-10-07T13:21:45Z</time>
      </trkpt>
      <trkpt lat="43.45244" lon="6.61399">
        <ele>20.81</ele>
        <time>2013-10-07T13:21:53Z</time>
      </trkpt>
      <trkpt lat="43.45239" lon="6.6143">
        <ele>20.81</ele>
        <time>2013-10-07T13:22:09Z</time>
      </trkpt>
      <trkpt lat="43.45233" lon="6.61453">
        <ele>20.32</ele>
        <time>2013-10-07T13:22:23Z</time>
      </trkpt>
      <trkpt lat="43.45218" lon="6.61467">
        <ele>20.32</ele>
        <time>2013-10-07T13:22:37Z</time>
      </trkpt>
      <trkpt lat="43.45204" lon="6.61478">
        <ele>19.84</ele>
        <time>2013-10-07T13:22:50Z</time>
      </trkpt>
      <trkpt lat="43.45191" lon="6.6149">
        <ele>19.84</ele>
        <time>2013-10-07T13:23:02Z</time>
      </trkpt>
      <trkpt lat="43.45178" lon="6.61498">
        <ele>19.84</ele>
        <time>2013-10-07T13:23:15Z</time>
      </trkpt>
      <trkpt lat="43.4516" lon="6.61501">
        <ele>19.36</ele>
        <time>2013-10-07T13:23:28Z</time>
      </trkpt>
      <trkpt lat="43.4514" lon="6.61505">
        <ele>20.32</ele>
        <time>2013-10-07T13:23:44Z</time>
      </trkpt>
      <trkpt lat="43.45121" lon="6.61515">
        <ele>20.32</ele>
        <time>2013-10-07T13:23:59Z</time>
      </trkpt>
      <trkpt lat="43.4512" lon="6.61515">
        <ele>20.81</ele>
        <time>2013-10-07T13:24:00Z</time>
      </trkpt>
      <trkpt lat="43.45104" lon="6.61526">
        <ele>20.81</ele>
        <time>2013-10-07T13:24:16Z</time>
      </trkpt>
      <trkpt lat="43.45096" lon="6.61528">
        <ele>21.29</ele>
        <time>2013-10-07T13:24:22Z</time>
      </trkpt>
      <trkpt lat="43.45076" lon="6.61519">
        <ele>20.32</ele>
        <time>2013-10-07T13:24:38Z</time>
      </trkpt>
      <trkpt lat="43.45057" lon="6.61524">
        <ele>19.36</ele>
        <time>2013-10-07T13:24:53Z</time>
      </trkpt>
      <trkpt lat="43.45052" lon="6.61528">
        <ele>18.88</ele>
        <time>2013-10-07T13:24:59Z</time>
      </trkpt>
      <trkpt lat="43.45049" lon="6.61538">
        <ele>18.88</ele>
        <time>2013-10-07T13:25:06Z</time>
      </trkpt>
      <trkpt lat="43.45046" lon="6.61563">
        <ele>19.84</ele>
        <time>2013-10-07T13:25:21Z</time>
      </trkpt>
      <trkpt lat="43.45044" lon="6.6158">
        <ele>19.84</ele>
        <time>2013-10-07T13:25:32Z</time>
      </trkpt>
      <trkpt lat="43.4504" lon="6.61598">
        <ele>20.32</ele>
        <time>2013-10-07T13:25:41Z</time>
      </trkpt>
      <trkpt lat="43.45053" lon="6.61622">
        <ele>20.32</ele>
        <time>2013-10-07T13:25:56Z</time>
      </trkpt>
      <trkpt lat="43.45068" lon="6.61635">
        <ele>20.32</ele>
        <time>2013-10-07T13:26:11Z</time>
      </trkpt>
      <trkpt lat="43.45072" lon="6.61637">
        <ele>19.84</ele>
        <time>2013-10-07T13:26:14Z</time>
      </trkpt>
      <trkpt lat="43.45076" lon="6.61633">
        <ele>19.36</ele>
        <time>2013-10-07T13:26:26Z</time>
      </trkpt>
      <trkpt lat="43.45075" lon="6.61635">
        <ele>19.36</ele>
        <time>2013-10-07T13:26:45Z</time>
      </trkpt>
      <trkpt lat="43.45074" lon="6.61633">
        <ele>21.29</ele>
        <time>2013-10-07T13:26:58Z</time>
      </trkpt>
    </trkseg>
  </trk>
</gpx>